Observation data for Menard on 07/12/2020      Previous  Date  Next       Current Mesonet Observations  Soil Data  Daily Summary Page  Observations in Plain Language
KMD1 120500Z 20004KT 30/15 A2999 RMK A01 T02970151  RH  041%=      5-min Rain = 0
KMD1 120501Z 20004KT 30/15 A2999 RMK A01 T02970151  RH  041%=      5-min Rain = 0
KMD1 120502Z 20005KT 30/15 A2999 RMK A01 T02960151  RH  041%=      5-min Rain = 0
KMD1 120503Z 20005KT 30/15 A2999 RMK A01 T02960150  RH  041%=      5-min Rain = 0
KMD1 120504Z 20005KT 30/15 A2998 RMK A01 T02960151  RH  041%=      5-min Rain = 0
KMD1 120505Z 20005KT 30/15 A2998 RMK A01 T02960150  RH  041%=      5-min Rain = 0
KMD1 120506Z 20005KT 30/15 A2998 RMK A01 T02950150  RH  041%=      5-min Rain = 0
KMD1 120507Z 20005KT 30/15 A2998 RMK A01 T02950150  RH  041%=      5-min Rain = 0
KMD1 120508Z 20005KT 30/15 A2998 RMK A01 T02950151  RH  041%=      5-min Rain = 0
KMD1 120509Z 20005KT 30/15 A2998 RMK A01 T02950150  RH  041%=      5-min Rain = 0
KMD1 120510Z 20005KT 30/15 A2998 RMK A01 T02950151  RH  042%=      5-min Rain = 0
KMD1 120511Z 21004KT 30/15 A2998 RMK A01 T02950151  RH  042%=      5-min Rain = 0
KMD1 120512Z 20005KT 29/15 A2999 RMK A01 T02940150  RH  042%=      5-min Rain = 0
KMD1 120513Z 21004KT 29/15 A2999 RMK A01 T02940151  RH  042%=      5-min Rain = 0
KMD1 120514Z 22004KT 29/15 A2999 RMK A01 T02940151  RH  042%=      5-min Rain = 0
KMD1 120515Z 21004KT 29/15 A2999 RMK A01 T02930151  RH  042%=      5-min Rain = 0
KMD1 120516Z 21003KT 29/15 A2999 RMK A01 T02920150  RH  042%=      5-min Rain = 0
KMD1 120517Z 22003KT 29/15 A2999 RMK A01 T02920150  RH  042%=      5-min Rain = 0
KMD1 120518Z 22004KT 29/15 A2999 RMK A01 T02930150  RH  042%=      5-min Rain = 0
KMD1 120519Z 21004KT 29/15 A2999 RMK A01 T02930150  RH  042%=      5-min Rain = 0
KMD1 120520Z 21004KT 29/15 A2999 RMK A01 T02920150  RH  042%=      5-min Rain = 0
KMD1 120521Z 21004KT 29/15 A2999 RMK A01 T02930150  RH  042%=      5-min Rain = 0
KMD1 120522Z 20004KT 29/15 A2999 RMK A01 T02920150  RH  042%=      5-min Rain = 0
KMD1 120523Z 21003KT 29/15 A2999 RMK A01 T02920149  RH  042%=      5-min Rain = 0
KMD1 120524Z 22004KT 29/15 A2999 RMK A01 T02920149  RH  042%=      5-min Rain = 0
KMD1 120525Z 22003KT 29/15 A2999 RMK A01 T02920150  RH  042%=      5-min Rain = 0
KMD1 120526Z 22003KT 29/15 A2999 RMK A01 T02920150  RH  042%=      5-min Rain = 0
KMD1 120527Z 22004KT 29/15 A2999 RMK A01 T02920150  RH  042%=      5-min Rain = 0
KMD1 120528Z 22004KT 29/15 A2999 RMK A01 T02920149  RH  042%=      5-min Rain = 0
KMD1 120529Z 22004KT 29/15 A2999 RMK A01 T02910149  RH  042%=      5-min Rain = 0
KMD1 120530Z 21003KT 29/15 A2999 RMK A01 T02920149  RH  042%=      5-min Rain = 0
KMD1 120531Z 22003KT 29/15 A2999 RMK A01 T02910150  RH  042%=      5-min Rain = 0
KMD1 120532Z 21004KT 29/15 A2999 RMK A01 T02900150  RH  042%=      5-min Rain = 0
KMD1 120533Z 21004KT 29/15 A2999 RMK A01 T02900150  RH  042%=      5-min Rain = 0
KMD1 120534Z 21005KT 29/15 A2999 RMK A01 T02900150  RH  042%=      5-min Rain = 0
KMD1 120535Z 21004KT 29/15 A2999 RMK A01 T02900150  RH  043%=      5-min Rain = 0
KMD1 120536Z 21004KT 29/15 A2999 RMK A01 T02890149  RH  042%=      5-min Rain = 0
KMD1 120537Z 20004KT 29/15 A2999 RMK A01 T02890149  RH  043%=      5-min Rain = 0
KMD1 120538Z 22004KT 29/15 A2999 RMK A01 T02890150  RH  043%=      5-min Rain = 0
KMD1 120539Z 20004KT 29/15 A2999 RMK A01 T02880150  RH  043%=      5-min Rain = 0
KMD1 120540Z 21003KT 29/15 A2999 RMK A01 T02880150  RH  043%=      5-min Rain = 0
KMD1 120541Z 21004KT 29/15 A2999 RMK A01 T02870150  RH  043%=      5-min Rain = 0
KMD1 120542Z 21004KT 29/15 A2999 RMK A01 T02870149  RH  043%=      5-min Rain = 0
KMD1 120543Z 20004KT 29/15 A2999 RMK A01 T02870149  RH  043%=      5-min Rain = 0
KMD1 120544Z 20004KT 29/15 A2999 RMK A01 T02870149  RH  043%=      5-min Rain = 0
KMD1 120545Z 20003KT 29/15 A2999 RMK A01 T02870150  RH  043%=      5-min Rain = 0
KMD1 120546Z 21004KT 29/15 A2999 RMK A01 T02870149  RH  043%=      5-min Rain = 0
KMD1 120547Z 21004KT 29/15 A2999 RMK A01 T02870149  RH  043%=      5-min Rain = 0
KMD1 120548Z 21005KT 29/15 A2999 RMK A01 T02870150  RH  043%=      5-min Rain = 0
KMD1 120549Z 21004KT 29/15 A2999 RMK A01 T02860150  RH  043%=      5-min Rain = 0
KMD1 120550Z 21004KT 29/15 A2999 RMK A01 T02850149  RH  043%=      5-min Rain = 0
KMD1 120551Z 21003KT 29/15 A2999 RMK A01 T02850150  RH  044%=      5-min Rain = 0
KMD1 120552Z 21004KT 29/15 A2999 RMK A01 T02850149  RH  044%=      5-min Rain = 0
KMD1 120553Z 21003KT 29/15 A2999 RMK A01 T02850150  RH  044%=      5-min Rain = 0
KMD1 120554Z 22004KT 28/15 A2999 RMK A01 T02840149  RH  044%=      5-min Rain = 0
KMD1 120555Z 21003KT 28/15 A2999 RMK A01 T02840149  RH  044%=      5-min Rain = 0
KMD1 120556Z 21003KT 28/15 A2999 RMK A01 T02840149  RH  044%=      5-min Rain = 0
KMD1 120557Z 21003KT 28/15 A2999 RMK A01 T02840150  RH  044%=      5-min Rain = 0
KMD1 120558Z 21003KT 28/15 A2999 RMK A01 T02830149  RH  044%=      5-min Rain = 0
KMD1 120559Z 21003KT 28/15 A2999 RMK A01 T02830148  RH  044%=      5-min Rain = 0
KMD1 120600Z 21002KT 28/15 A2999 RMK A01 T02830149  RH  044%=      5-min Rain = 0
KMD1 120601Z 21002KT 28/15 A2999 RMK A01 T02830149  RH  044%=      5-min Rain = 0
KMD1 120602Z 22002KT 28/15 A2999 RMK A01 T02820149  RH  044%=      5-min Rain = 0
KMD1 120603Z 22002KT 28/15 A2999 RMK A01 T02820148  RH  044%=      5-min Rain = 0
KMD1 120604Z 22002KT 28/15 A2999 RMK A01 T02810148  RH  044%=      5-min Rain = 0
KMD1 120605Z 20002KT 28/15 A2999 RMK A01 T02820148  RH  044%=      5-min Rain = 0
KMD1 120606Z 23002KT 28/15 A2999 RMK A01 T02810149  RH  044%=      5-min Rain = 0
KMD1 120607Z 22002KT 28/15 A2999 RMK A01 T02810148  RH  044%=      5-min Rain = 0
KMD1 120608Z 23001KT 28/15 A2999 RMK A01 T02810147  RH  044%=      5-min Rain = 0
KMD1 120609Z 21002KT 28/15 A2999 RMK A01 T02810147  RH  044%=      5-min Rain = 0
KMD1 120610Z 22001KT 28/15 A2999 RMK A01 T02810147  RH  044%=      5-min Rain = 0
KMD1 120611Z 20002KT 28/15 A2999 RMK A01 T02810147  RH  044%=      5-min Rain = 0
KMD1 120612Z 20001KT 28/15 A2999 RMK A01 T02810147  RH  044%=      5-min Rain = 0
KMD1 120613Z 22000KT 28/15 A2999 RMK A01 T02800147  RH  044%=      5-min Rain = 0
KMD1 120614Z 24000KT 28/15 A2999 RMK A01 T02800148  RH  044%=      5-min Rain = 0
KMD1 120615Z 24000KT 28/15 A30 RMK A01 T02790152  RH  046%=      5-min Rain = 0
KMD1 120616Z 31000KT 27/16 A30 RMK A01 T02740155  RH  048%=      5-min Rain = 0
KMD1 120617Z 29000KT 27/16 A30 RMK A01 T02670155  RH  050%=      5-min Rain = 0
KMD1 120618Z 32000KT 26/15 A30 RMK A01 T02640154  RH  051%=      5-min Rain = 0
KMD1 120619Z 31001KT 26/15 A30 RMK A01 T02630152  RH  050%=      5-min Rain = 0
KMD1 120620Z 31000KT 26/15 A30 RMK A01 T02630153  RH  051%=      5-min Rain = 0
KMD1 120621Z 32001KT 26/15 A30 RMK A01 T02630152  RH  051%=      5-min Rain = 0
KMD1 120622Z 30001KT 26/15 A30 RMK A01 T02630151  RH  050%=      5-min Rain = 0
KMD1 120623Z 32001KT 26/15 A30 RMK A01 T02640153  RH  051%=      5-min Rain = 0
KMD1 120624Z 33000KT 26/16 A30 RMK A01 T02630155  RH  051%=      5-min Rain = 0
KMD1 120625Z 31001KT 26/15 A30 RMK A01 T02600154  RH  052%=      5-min Rain = 0
KMD1 120626Z 32001KT 26/15 A30 RMK A01 T02590152  RH  051%=      5-min Rain = 0
KMD1 120627Z 32001KT 26/15 A30 RMK A01 T02600152  RH  052%=      5-min Rain = 0
KMD1 120628Z 33001KT 26/15 A30 RMK A01 T02590154  RH  052%=      5-min Rain = 0
KMD1 120629Z 32001KT 26/16 A30 RMK A01 T02570156  RH  054%=      5-min Rain = 0
KMD1 120630Z 33001KT 25/16 A30 RMK A01 T02540155  RH  054%=      5-min Rain = 0
KMD1 120631Z 31001KT 25/16 A30 RMK A01 T02520155  RH  055%=      5-min Rain = 0
KMD1 120632Z 32001KT 25/16 A30 RMK A01 T02520155  RH  055%=      5-min Rain = 0
KMD1 120633Z 32002KT 25/16 A30 RMK A01 T02510156  RH  055%=      5-min Rain = 0
KMD1 120634Z 32001KT 25/16 A30 RMK A01 T02500155  RH  055%=      5-min Rain = 0
KMD1 120635Z 32002KT 25/16 A30 RMK A01 T02500155  RH  055%=      5-min Rain = 0
KMD1 120636Z 32001KT 25/16 A30 RMK A01 T02510155  RH  056%=      5-min Rain = 0
KMD1 120637Z 31001KT 25/15 A30 RMK A01 T02500154  RH  055%=      5-min Rain = 0
KMD1 120638Z 32001KT 25/16 A30 RMK A01 T02500155  RH  055%=      5-min Rain = 0
KMD1 120639Z 32001KT 25/16 A30 RMK A01 T02500156  RH  056%=      5-min Rain = 0
KMD1 120640Z 30000KT 25/15 A30 RMK A01 T02510153  RH  055%=      5-min Rain = 0
KMD1 120641Z 30001KT 25/16 A30 RMK A01 T02530155  RH  054%=      5-min Rain = 0
KMD1 120642Z 29000KT 25/15 A30 RMK A01 T02540154  RH  054%=      5-min Rain = 0
KMD1 120643Z 31000KT 25/15 A30 RMK A01 T02540154  RH  054%=      5-min Rain = 0
KMD1 120644Z 29000KT 25/16 A30 RMK A01 T02540156  RH  055%=      5-min Rain = 0
KMD1 120645Z 22001KT 25/16 A30 RMK A01 T02530158  RH  055%=      5-min Rain = 0
KMD1 120646Z 27001KT 25/16 A30 RMK A01 T02530156  RH  055%=      5-min Rain = 0
KMD1 120647Z 19000KT 25/16 A30 RMK A01 T02530159  RH  056%=      5-min Rain = 0
KMD1 120648Z 20001KT 25/16 A30 RMK A01 T02530157  RH  055%=      5-min Rain = 0
KMD1 120649Z 21002KT 25/16 A30 RMK A01 T02530156  RH  055%=      5-min Rain = 0
KMD1 120650Z 20002KT 25/15 A30 RMK A01 T02540152  RH  053%=      5-min Rain = 0
KMD1 120651Z 21002KT 26/15 A30 RMK A01 T02550151  RH  053%=      5-min Rain = 0
KMD1 120652Z 22002KT 26/15 A30 RMK A01 T02570145  RH  050%=      5-min Rain = 0
KMD1 120653Z 23002KT 26/15 A30 RMK A01 T02630145  RH  048%=      5-min Rain = 0
KMD1 120654Z 22002KT 27/15 A30 RMK A01 T02660146  RH  048%=      5-min Rain = 0
KMD1 120655Z 21001KT 27/15 A30 RMK A01 T02680153  RH  049%=      5-min Rain = 0
KMD1 120656Z 22001KT 27/16 A30 RMK A01 T02660155  RH  050%=      5-min Rain = 0
KMD1 120657Z 22001KT 27/15 A30 RMK A01 T02650152  RH  050%=      5-min Rain = 0
KMD1 120658Z 21001KT 26/15 A30 RMK A01 T02640151  RH  050%=      5-min Rain = 0
KMD1 120659Z 22001KT 26/15 A30 RMK A01 T02630154  RH  051%=      5-min Rain = 0
KMD1 120700Z 23002KT 26/15 A30 RMK A01 T02630154  RH  051%=      5-min Rain = 0
KMD1 120701Z 24003KT 26/15 A30 RMK A01 T02620147  RH  049%=      5-min Rain = 0
KMD1 120702Z 23001KT 26/15 A30 RMK A01 T02640149  RH  049%=      5-min Rain = 0
KMD1 120703Z 23001KT 26/15 A30 RMK A01 T02640153  RH  050%=      5-min Rain = 0
KMD1 120704Z 24000KT 26/16 A30 RMK A01 T02630161  RH  053%=      5-min Rain = 0
KMD1 120705Z 24000KT 26/16 A30 RMK A01 T02580160  RH  055%=      5-min Rain = 0
KMD1 120706Z 22001KT 26/16 A30 RMK A01 T02560157  RH  054%=      5-min Rain = 0
KMD1 120707Z 23001KT 26/16 A30 RMK A01 T02550157  RH  055%=      5-min Rain = 0
KMD1 120708Z 23001KT 26/16 A30 RMK A01 T02550156  RH  054%=      5-min Rain = 0
KMD1 120709Z 21002KT 26/16 A30 RMK A01 T02550160  RH  056%=      5-min Rain = 0
KMD1 120710Z 22002KT 25/16 A30 RMK A01 T02530157  RH  055%=      5-min Rain = 0
KMD1 120711Z 21002KT 25/16 A30 RMK A01 T02530156  RH  055%=      5-min Rain = 0
KMD1 120712Z 22002KT 25/16 A30 RMK A01 T02530155  RH  055%=      5-min Rain = 0
KMD1 120713Z 21002KT 25/16 A30 RMK A01 T02530155  RH  054%=      5-min Rain = 0
KMD1 120714Z 21002KT 25/15 A30 RMK A01 T02520153  RH  054%=      5-min Rain = 0
KMD1 120715Z 22001KT 25/15 A30 RMK A01 T02530150  RH  053%=      5-min Rain = 0
KMD1 120716Z 22001KT 26/15 A30 RMK A01 T02550149  RH  052%=      5-min Rain = 0
KMD1 120717Z 22001KT 26/15 A30 RMK A01 T02560149  RH  052%=      5-min Rain = 0
KMD1 120718Z 22001KT 26/15 A3001 RMK A01 T02570153  RH  053%=      5-min Rain = 0
KMD1 120719Z 23001KT 26/15 A30 RMK A01 T02570153  RH  053%=      5-min Rain = 0
KMD1 120720Z 22001KT 26/15 A30 RMK A01 T02560150  RH  052%=      5-min Rain = 0
KMD1 120721Z 22001KT 26/15 A30 RMK A01 T02560150  RH  052%=      5-min Rain = 0
KMD1 120722Z 21001KT 26/15 A30 RMK A01 T02560149  RH  052%=      5-min Rain = 0
KMD1 120723Z 21001KT 26/15 A30 RMK A01 T02560149  RH  052%=      5-min Rain = 0
KMD1 120724Z 21001KT 26/15 A30 RMK A01 T02560150  RH  052%=      5-min Rain = 0
KMD1 120725Z 21001KT 26/16 A30 RMK A01 T02560157  RH  054%=      5-min Rain = 0
KMD1 120726Z 20001KT 26/16 A30 RMK A01 T02550155  RH  054%=      5-min Rain = 0
KMD1 120727Z 20001KT 25/16 A30 RMK A01 T02540157  RH  055%=      5-min Rain = 0
KMD1 120728Z 18001KT 25/16 A30 RMK A01 T02530155  RH  054%=      5-min Rain = 0
KMD1 120729Z 17001KT 25/15 A30 RMK A01 T02530153  RH  054%=      5-min Rain = 0
KMD1 120730Z 17002KT 25/16 A30 RMK A01 T02530157  RH  055%=      5-min Rain = 0
KMD1 120731Z 17002KT 25/16 A30 RMK A01 T02530158  RH  056%=      5-min Rain = 0
KMD1 120732Z 18002KT 25/16 A30 RMK A01 T02530158  RH  056%=      5-min Rain = 0
KMD1 120733Z 19002KT 25/16 A30 RMK A01 T02530156  RH  055%=      5-min Rain = 0
KMD1 120734Z 18002KT 25/16 A30 RMK A01 T02530157  RH  055%=      5-min Rain = 0
KMD1 120735Z 19002KT 25/16 A30 RMK A01 T02530155  RH  055%=      5-min Rain = 0
KMD1 120736Z 18002KT 25/15 A30 RMK A01 T02530152  RH  054%=      5-min Rain = 0
KMD1 120737Z 19002KT 25/15 A30 RMK A01 T02530150  RH  053%=      5-min Rain = 0
KMD1 120738Z 19003KT 25/15 A30 RMK A01 T02530149  RH  052%=      5-min Rain = 0
KMD1 120739Z 19003KT 25/15 A30 RMK A01 T02540149  RH  052%=      5-min Rain = 0
KMD1 120740Z 19003KT 25/15 A30 RMK A01 T02540150  RH  053%=      5-min Rain = 0
KMD1 120741Z 19003KT 25/15 A30 RMK A01 T02540149  RH  052%=      5-min Rain = 0
KMD1 120742Z 20003KT 26/15 A30 RMK A01 T02550147  RH  051%=      5-min Rain = 0
KMD1 120743Z 18003KT 26/15 A30 RMK A01 T02550145  RH  051%=      5-min Rain = 0
KMD1 120744Z 18002KT 26/15 A30 RMK A01 T02560145  RH  050%=      5-min Rain = 0
KMD1 120745Z 19002KT 26/14 A30 RMK A01 T02570144  RH  050%=      5-min Rain = 0
KMD1 120746Z 19002KT 26/14 A30 RMK A01 T02580144  RH  050%=      5-min Rain = 0
KMD1 120747Z 19002KT 26/14 A30 RMK A01 T02590144  RH  049%=      5-min Rain = 0
KMD1 120748Z 19002KT 26/15 A30 RMK A01 T02600145  RH  049%=      5-min Rain = 0
KMD1 120749Z 19002KT 26/14 A30 RMK A01 T02610144  RH  049%=      5-min Rain = 0
KMD1 120750Z 19002KT 26/15 A30 RMK A01 T02610145  RH  049%=      5-min Rain = 0
KMD1 120751Z 19002KT 26/15 A30 RMK A01 T02610146  RH  049%=      5-min Rain = 0
KMD1 120752Z 19002KT 26/15 A30 RMK A01 T02610147  RH  050%=      5-min Rain = 0
KMD1 120753Z 19002KT 26/15 A30 RMK A01 T02600148  RH  050%=      5-min Rain = 0
KMD1 120754Z 20002KT 26/15 A30 RMK A01 T02590148  RH  050%=      5-min Rain = 0
KMD1 120755Z 20002KT 26/15 A30 RMK A01 T02580148  RH  051%=      5-min Rain = 0
KMD1 120756Z 20002KT 26/15 A30 RMK A01 T02570148  RH  051%=      5-min Rain = 0
KMD1 120757Z 21002KT 26/15 A30 RMK A01 T02560148  RH  051%=      5-min Rain = 0
KMD1 120758Z 21002KT 26/15 A30 RMK A01 T02550149  RH  052%=      5-min Rain = 0
KMD1 120759Z 20002KT 26/15 A30 RMK A01 T02550149  RH  052%=      5-min Rain = 0
KMD1 120800Z 20002KT 25/15 A30 RMK A01 T02540148  RH  052%=      5-min Rain = 0
KMD1 120801Z 20002KT 25/15 A30 RMK A01 T02540148  RH  052%=      5-min Rain = 0
KMD1 120802Z 20002KT 25/15 A30 RMK A01 T02530147  RH  052%=      5-min Rain = 0
KMD1 120803Z 20002KT 25/15 A30 RMK A01 T02530147  RH  052%=      5-min Rain = 0
KMD1 120804Z 20001KT 25/15 A30 RMK A01 T02530147  RH  052%=      5-min Rain = 0
KMD1 120805Z 20002KT 25/15 A30 RMK A01 T02520147  RH  052%=      5-min Rain = 0
KMD1 120806Z 21001KT 25/15 A30 RMK A01 T02520147  RH  052%=      5-min Rain = 0
KMD1 120807Z 21002KT 25/15 A30 RMK A01 T02510146  RH  052%=      5-min Rain = 0
KMD1 120808Z 22002KT 25/15 A30 RMK A01 T02510145  RH  052%=      5-min Rain = 0
KMD1 120809Z 24001KT 25/15 A30 RMK A01 T02510145  RH  052%=      5-min Rain = 0
KMD1 120810Z 24001KT 25/15 A30 RMK A01 T02500145  RH  052%=      5-min Rain = 0
KMD1 120811Z 22001KT 25/14 A30 RMK A01 T02500144  RH  052%=      5-min Rain = 0
KMD1 120812Z 23001KT 25/14 A30 RMK A01 T02500144  RH  052%=      5-min Rain = 0
KMD1 120813Z 25001KT 25/14 A30 RMK A01 T02500144  RH  052%=      5-min Rain = 0
KMD1 120814Z 24001KT 25/14 A30 RMK A01 T02500143  RH  051%=      5-min Rain = 0
KMD1 120815Z 26001KT 25/14 A30 RMK A01 T02500143  RH  051%=      5-min Rain = 0
KMD1 120816Z 26001KT 25/14 A30 RMK A01 T02510143  RH  051%=      5-min Rain = 0
KMD1 120817Z 28001KT 25/14 A30 RMK A01 T02510144  RH  052%=      5-min Rain = 0
KMD1 120818Z 27001KT 25/15 A30 RMK A01 T02510147  RH  052%=      5-min Rain = 0
KMD1 120819Z 30001KT 25/15 A30 RMK A01 T02500147  RH  053%=      5-min Rain = 0
KMD1 120820Z 28001KT 25/15 A30 RMK A01 T02490147  RH  053%=      5-min Rain = 0
KMD1 120821Z 29001KT 25/15 A30 RMK A01 T02480146  RH  053%=      5-min Rain = 0
KMD1 120822Z 30001KT 25/15 A30 RMK A01 T02470145  RH  053%=      5-min Rain = 0
KMD1 120823Z 26001KT 25/15 A30 RMK A01 T02480147  RH  053%=      5-min Rain = 0
KMD1 120824Z 28001KT 25/14 A30 RMK A01 T02470144  RH  053%=      5-min Rain = 0
KMD1 120825Z 29002KT 25/14 A30 RMK A01 T02470144  RH  053%=      5-min Rain = 0
KMD1 120826Z 27002KT 25/14 A30 RMK A01 T02480144  RH  052%=      5-min Rain = 0
KMD1 120827Z 25003KT 25/14 A30 RMK A01 T02490143  RH  052%=      5-min Rain = 0
KMD1 120828Z 26003KT 25/14 A30 RMK A01 T02500143  RH  051%=      5-min Rain = 0
KMD1 120829Z 25003KT 25/14 A30 RMK A01 T02530143  RH  051%=      5-min Rain = 0
KMD1 120830Z 23002KT 25/14 A30 RMK A01 T02540144  RH  050%=      5-min Rain = 0
KMD1 120831Z 22002KT 25/15 A30 RMK A01 T02540145  RH  051%=      5-min Rain = 0
KMD1 120832Z 26003KT 25/15 A30 RMK A01 T02540145  RH  051%=      5-min Rain = 0
KMD1 120833Z 26002KT 25/15 A30 RMK A01 T02540145  RH  051%=      5-min Rain = 0
KMD1 120834Z 26002KT 25/14 A30 RMK A01 T02540144  RH  050%=      5-min Rain = 0
KMD1 120835Z 29002KT 25/14 A30 RMK A01 T02540144  RH  050%=      5-min Rain = 0
KMD1 120836Z 26002KT 26/15 A3001 RMK A01 T02550146  RH  051%=      5-min Rain = 0
KMD1 120837Z 28002KT 25/15 A3001 RMK A01 T02540145  RH  051%=      5-min Rain = 0
KMD1 120838Z 26002KT 25/15 A30 RMK A01 T02540146  RH  051%=      5-min Rain = 0
KMD1 120839Z 26002KT 26/15 A30 RMK A01 T02550147  RH  051%=      5-min Rain = 0
KMD1 120840Z 25002KT 26/15 A30 RMK A01 T02560147  RH  051%=      5-min Rain = 0
KMD1 120841Z 25003KT 26/15 A30 RMK A01 T02560147  RH  051%=      5-min Rain = 0
KMD1 120842Z 23003KT 26/15 A30 RMK A01 T02570147  RH  051%=      5-min Rain = 0
KMD1 120843Z 23003KT 26/15 A30 RMK A01 T02580148  RH  051%=      5-min Rain = 0
KMD1 120844Z 25002KT 26/15 A30 RMK A01 T02590148  RH  050%=      5-min Rain = 0
KMD1 120845Z 22004KT 26/15 A30 RMK A01 T02600148  RH  050%=      5-min Rain = 0
KMD1 120846Z 23003KT 26/15 A30 RMK A01 T02600149  RH  050%=      5-min Rain = 0
KMD1 120847Z 22004KT 26/15 A30 RMK A01 T02610150  RH  050%=      5-min Rain = 0
KMD1 120848Z 22004KT 26/15 A30 RMK A01 T02610151  RH  051%=      5-min Rain = 0
KMD1 120849Z 21004KT 26/15 A30 RMK A01 T02610151  RH  051%=      5-min Rain = 0
KMD1 120850Z 20004KT 26/15 A30 RMK A01 T02620152  RH  051%=      5-min Rain = 0
KMD1 120851Z 21004KT 26/15 A30 RMK A01 T02620152  RH  051%=      5-min Rain = 0
KMD1 120852Z 21003KT 26/15 A30 RMK A01 T02620152  RH  051%=      5-min Rain = 0
KMD1 120853Z 20003KT 26/15 A30 RMK A01 T02610152  RH  051%=      5-min Rain = 0
KMD1 120854Z 21004KT 26/15 A30 RMK A01 T02610153  RH  051%=      5-min Rain = 0
KMD1 120855Z 20004KT 26/15 A30 RMK A01 T02610153  RH  051%=      5-min Rain = 0
KMD1 120856Z 20004KT 26/15 A30 RMK A01 T02610153  RH  051%=      5-min Rain = 0
KMD1 120857Z 20004KT 26/15 A30 RMK A01 T02600154  RH  052%=      5-min Rain = 0
KMD1 120858Z 20003KT 26/15 A30 RMK A01 T02590153  RH  052%=      5-min Rain = 0
KMD1 120859Z 20003KT 26/15 A30 RMK A01 T02590154  RH  052%=      5-min Rain = 0
KMD1 120900Z 20004KT 26/15 A30 RMK A01 T02580153  RH  052%=      5-min Rain = 0
KMD1 120901Z 20004KT 26/15 A30 RMK A01 T02570153  RH  053%=      5-min Rain = 0
KMD1 120902Z 20004KT 26/15 A30 RMK A01 T02560154  RH  053%=      5-min Rain = 0
KMD1 120903Z 20004KT 26/15 A30 RMK A01 T02550154  RH  053%=      5-min Rain = 0
KMD1 120904Z 20004KT 25/15 A30 RMK A01 T02540154  RH  054%=      5-min Rain = 0
KMD1 120905Z 21004KT 25/15 A30 RMK A01 T02530154  RH  054%=      5-min Rain = 0
KMD1 120906Z 21003KT 25/15 A30 RMK A01 T02540154  RH  054%=      5-min Rain = 0
KMD1 120907Z 21003KT 25/15 A30 RMK A01 T02540154  RH  054%=      5-min Rain = 0
KMD1 120908Z 21003KT 25/16 A30 RMK A01 T02540155  RH  054%=      5-min Rain = 0
KMD1 120909Z 21004KT 25/16 A30 RMK A01 T02530155  RH  054%=      5-min Rain = 0
KMD1 120910Z 21004KT 25/16 A30 RMK A01 T02530156  RH  055%=      5-min Rain = 0
KMD1 120911Z 21003KT 25/16 A30 RMK A01 T02530156  RH  055%=      5-min Rain = 0
KMD1 120912Z 21003KT 25/16 A30 RMK A01 T02530157  RH  055%=      5-min Rain = 0
KMD1 120913Z 21004KT 25/16 A30 RMK A01 T02520157  RH  056%=      5-min Rain = 0
KMD1 120914Z 21004KT 25/16 A30 RMK A01 T02510158  RH  056%=      5-min Rain = 0
KMD1 120915Z 21004KT 25/16 A2999 RMK A01 T02500158  RH  057%=      5-min Rain = 0
KMD1 120916Z 21004KT 25/16 A2999 RMK A01 T02500160  RH  057%=      5-min Rain = 0
KMD1 120917Z 20004KT 25/16 A2999 RMK A01 T02490160  RH  058%=      5-min Rain = 0
KMD1 120918Z 21004KT 25/16 A2999 RMK A01 T02480161  RH  059%=      5-min Rain = 0
KMD1 120919Z 21004KT 25/16 A2999 RMK A01 T02470162  RH  059%=      5-min Rain = 0
KMD1 120920Z 20004KT 25/16 A2999 RMK A01 T02470162  RH  059%=      5-min Rain = 0
KMD1 120921Z 21005KT 25/16 A2999 RMK A01 T02460162  RH  060%=      5-min Rain = 0
KMD1 120922Z 20005KT 25/16 A2999 RMK A01 T02460163  RH  060%=      5-min Rain = 0
KMD1 120923Z 21005KT 25/16 A2999 RMK A01 T02460164  RH  060%=      5-min Rain = 0
KMD1 120924Z 21005KT 25/17 A2999 RMK A01 T02460165  RH  060%=      5-min Rain = 0
KMD1 120925Z 21006KT 25/17 A2998 RMK A01 T02460165  RH  061%=      5-min Rain = 0
KMD1 120926Z 21005KT 25/17 A2998 RMK A01 T02470166  RH  061%=      5-min Rain = 0
KMD1 120927Z 20005KT 25/17 A2998 RMK A01 T02470166  RH  061%=      5-min Rain = 0
KMD1 120928Z 21006KT 25/17 A2998 RMK A01 T02470168  RH  062%=      5-min Rain = 0
KMD1 120929Z 21007KT 25/17 A2998 RMK A01 T02470170  RH  062%=      5-min Rain = 0
KMD1 120930Z 20007KT 25/17 A2997 RMK A01 T02470171  RH  063%=      5-min Rain = 0
KMD1 120931Z 21007KT 25/17 A2997 RMK A01 T02470173  RH  063%=      5-min Rain = 0
KMD1 120932Z 21008KT 25/17 A2997 RMK A01 T02470174  RH  064%=      5-min Rain = 0
KMD1 120933Z 21007KT 25/18 A2997 RMK A01 T02470176  RH  065%=      5-min Rain = 0
KMD1 120934Z 21007KT 25/18 A2997 RMK A01 T02470179  RH  066%=      5-min Rain = 0
KMD1 120935Z 20006KT 25/18 A2997 RMK A01 T02480180  RH  066%=      5-min Rain = 0
KMD1 120936Z 20008KT 25/18 A2997 RMK A01 T02490182  RH  066%=      5-min Rain = 0
KMD1 120937Z 20009KT 25/19 A2996 RMK A01 T02510186  RH  067%=      5-min Rain = 0
KMD1 120938Z 20009KT 26/19 A2996 RMK A01 T02550188  RH  067%=      5-min Rain = 0
KMD1 120939Z 20010KT 26/19 A2997 RMK A01 T02570190  RH  066%=      5-min Rain = 0
KMD1 120940Z 20008KT 26/19 A2997 RMK A01 T02590191  RH  066%=      5-min Rain = 0
KMD1 120941Z 20009KT 26/19 A2997 RMK A01 T02600191  RH  066%=      5-min Rain = 0
KMD1 120942Z 20010KT 26/19 A2997 RMK A01 T02620192  RH  066%=      5-min Rain = 0
KMD1 120943Z 20010G16KT 26/19 A2997 RMK A01 T02630193  RH  065%=      5-min Rain = 0
KMD1 120944Z 20009KT 26/19 A2997 RMK A01 T02640193  RH  065%=      5-min Rain = 0
KMD1 120945Z 20006KT 27/19 A2997 RMK A01 T02650193  RH  065%=      5-min Rain = 0
KMD1 120946Z 20008G13KT 27/19 A2997 RMK A01 T02650194  RH  065%=      5-min Rain = 0
KMD1 120947Z 20010KT 27/19 A2997 RMK A01 T02650194  RH  065%=      5-min Rain = 0
KMD1 120948Z 20007KT 27/19 A2997 RMK A01 T02650194  RH  065%=      5-min Rain = 0
KMD1 120949Z 19007KT 27/19 A2997 RMK A01 T02650194  RH  065%=      5-min Rain = 0
KMD1 120950Z 19009KT 27/20 A2997 RMK A01 T02660195  RH  065%=      5-min Rain = 0
KMD1 120951Z 20008KT 27/20 A2997 RMK A01 T02660195  RH  065%=      5-min Rain = 0
KMD1 120952Z 20009KT 27/20 A2997 RMK A01 T02660195  RH  065%=      5-min Rain = 0
KMD1 120953Z 20008KT 27/20 A2997 RMK A01 T02660196  RH  065%=      5-min Rain = 0
KMD1 120954Z 20007KT 27/20 A2997 RMK A01 T02660196  RH  065%=      5-min Rain = 0
KMD1 120955Z 20008KT 27/20 A2997 RMK A01 T02660196  RH  065%=      5-min Rain = 0
KMD1 120956Z 20010KT 27/20 A2997 RMK A01 T02660196  RH  065%=      5-min Rain = 0
KMD1 120957Z 19008KT 27/20 A2997 RMK A01 T02670197  RH  065%=      5-min Rain = 0
KMD1 120958Z 19011KT 27/20 A2997 RMK A01 T02670197  RH  066%=      5-min Rain = 0
KMD1 120959Z 19009KT 27/20 A2997 RMK A01 T02670198  RH  066%=      5-min Rain = 0
KMD1 121000Z 19010KT 27/20 A2997 RMK A01 T02680198  RH  065%=      5-min Rain = 0
KMD1 121001Z 19009KT 27/20 A2997 RMK A01 T02680198  RH  065%=      5-min Rain = 0
KMD1 121002Z 19011KT 27/20 A2997 RMK A01 T02680198  RH  066%=      5-min Rain = 0
KMD1 121003Z 20008KT 27/20 A2997 RMK A01 T02680198  RH  065%=      5-min Rain = 0
KMD1 121004Z 19009KT 27/20 A2997 RMK A01 T02680198  RH  065%=      5-min Rain = 0
KMD1 121005Z 19007KT 27/20 A2997 RMK A01 T02680199  RH  066%=      5-min Rain = 0
KMD1 121006Z 19009KT 27/20 A2998 RMK A01 T02680199  RH  066%=      5-min Rain = 0
KMD1 121007Z 19008KT 27/20 A2998 RMK A01 T02680199  RH  066%=      5-min Rain = 0
KMD1 121008Z 19007KT 27/20 A2998 RMK A01 T02680199  RH  066%=      5-min Rain = 0
KMD1 121009Z 20007KT 27/20 A2998 RMK A01 T02680200  RH  066%=      5-min Rain = 0
KMD1 121010Z 20007KT 27/20 A2998 RMK A01 T02680200  RH  066%=      5-min Rain = 0
KMD1 121011Z 20006KT 27/20 A2998 RMK A01 T02680200  RH  066%=      5-min Rain = 0
KMD1 121012Z 20006KT 27/20 A2998 RMK A01 T02680200  RH  066%=      5-min Rain = 0
KMD1 121013Z 20007KT 27/20 A2998 RMK A01 T02680200  RH  066%=      5-min Rain = 0
KMD1 121014Z 21005KT 27/20 A2999 RMK A01 T02680200  RH  066%=      5-min Rain = 0
KMD1 121015Z 21004KT 27/20 A2999 RMK A01 T02670200  RH  067%=      5-min Rain = 0
KMD1 121016Z 22005KT 27/20 A2999 RMK A01 T02660200  RH  067%=      5-min Rain = 0
KMD1 121017Z 21006KT 27/20 A2999 RMK A01 T02660200  RH  067%=      5-min Rain = 0
KMD1 121018Z 21004KT 27/20 A2999 RMK A01 T02650200  RH  067%=      5-min Rain = 0
KMD1 121019Z 22004KT 27/20 A2999 RMK A01 T02660201  RH  067%=      5-min Rain = 0
KMD1 121020Z 22004KT 27/20 A2999 RMK A01 T02660201  RH  067%=      5-min Rain = 0
KMD1 121021Z 23004KT 27/20 A30 RMK A01 T02660200  RH  067%=      5-min Rain = 0
KMD1 121022Z 24003KT 27/20 A30 RMK A01 T02660201  RH  067%=      5-min Rain = 0
KMD1 121023Z 24003KT 27/20 A30 RMK A01 T02650201  RH  068%=      5-min Rain = 0
KMD1 121024Z 23005KT 27/20 A30 RMK A01 T02650201  RH  068%=      5-min Rain = 0
KMD1 121025Z 25003KT 27/20 A30 RMK A01 T02650201  RH  068%=      5-min Rain = 0
KMD1 121026Z 24004KT 27/20 A30 RMK A01 T02650201  RH  068%=      5-min Rain = 0
KMD1 121027Z 24004KT 27/20 A30 RMK A01 T02650201  RH  068%=      5-min Rain = 0
KMD1 121028Z 24005KT 27/20 A30 RMK A01 T02650200  RH  068%=      5-min Rain = 0
KMD1 121029Z 24003KT 27/20 A30 RMK A01 T02650200  RH  068%=      5-min Rain = 0
KMD1 121030Z 23002KT 27/20 A30 RMK A01 T02650200  RH  068%=      5-min Rain = 0
KMD1 121031Z 24004KT 27/20 A30 RMK A01 T02650200  RH  068%=      5-min Rain = 0
KMD1 121032Z 23004KT 26/20 A30 RMK A01 T02640200  RH  068%=      5-min Rain = 0
KMD1 121033Z 23004KT 26/20 A30 RMK A01 T02630201  RH  069%=      5-min Rain = 0
KMD1 121034Z 21003KT 26/20 A30 RMK A01 T02630200  RH  069%=      5-min Rain = 0
KMD1 121035Z 21004KT 26/20 A30 RMK A01 T02630201  RH  069%=      5-min Rain = 0
KMD1 121036Z 21004KT 26/20 A30 RMK A01 T02630201  RH  069%=      5-min Rain = 0
KMD1 121037Z 21004KT 26/20 A30 RMK A01 T02620201  RH  069%=      5-min Rain = 0
KMD1 121038Z 20006KT 26/20 A30 RMK A01 T02620201  RH  069%=      5-min Rain = 0
KMD1 121039Z 21005KT 26/20 A2999 RMK A01 T02620202  RH  069%=      5-min Rain = 0
KMD1 121040Z 21004KT 26/20 A2999 RMK A01 T02620202  RH  070%=      5-min Rain = 0
KMD1 121041Z 20006KT 26/20 A2999 RMK A01 T02610202  RH  070%=      5-min Rain = 0
KMD1 121042Z 20005KT 26/20 A2999 RMK A01 T02620202  RH  070%=      5-min Rain = 0
KMD1 121043Z 20005KT 26/20 A2999 RMK A01 T02620202  RH  070%=      5-min Rain = 0
KMD1 121044Z 19004KT 26/20 A2999 RMK A01 T02620203  RH  070%=      5-min Rain = 0
KMD1 121045Z 20004KT 26/20 A2999 RMK A01 T02610202  RH  070%=      5-min Rain = 0
KMD1 121046Z 20004KT 26/20 A30 RMK A01 T02600202  RH  070%=      5-min Rain = 0
KMD1 121047Z 20003KT 26/20 A30 RMK A01 T02600202  RH  071%=      5-min Rain = 0
KMD1 121048Z 21003KT 26/20 A30 RMK A01 T02600203  RH  071%=      5-min Rain = 0
KMD1 121049Z 20003KT 26/20 A30 RMK A01 T02590202  RH  071%=      5-min Rain = 0
KMD1 121050Z 21002KT 26/20 A30 RMK A01 T02590202  RH  071%=      5-min Rain = 0
KMD1 121051Z 21002KT 26/20 A30 RMK A01 T02590203  RH  071%=      5-min Rain = 0
KMD1 121052Z 19002KT 26/20 A30 RMK A01 T02590202  RH  071%=      5-min Rain = 0
KMD1 121053Z 20002KT 26/20 A30 RMK A01 T02580203  RH  071%=      5-min Rain = 0
KMD1 121054Z 21002KT 26/20 A30 RMK A01 T02580203  RH  071%=      5-min Rain = 0
KMD1 121055Z 21002KT 26/20 A30 RMK A01 T02580203  RH  072%=      5-min Rain = 0
KMD1 121056Z 19004KT 26/20 A30 RMK A01 T02580203  RH  072%=      5-min Rain = 0
KMD1 121057Z 21002KT 26/20 A30 RMK A01 T02580203  RH  072%=      5-min Rain = 0
KMD1 121058Z 21003KT 26/20 A30 RMK A01 T02570203  RH  072%=      5-min Rain = 0
KMD1 121059Z 21005KT 26/20 A30 RMK A01 T02570203  RH  072%=      5-min Rain = 0
KMD1 121100Z 21005KT 26/20 A30 RMK A01 T02580203  RH  072%=      5-min Rain = 0
KMD1 121101Z 22004KT 26/20 A30 RMK A01 T02580203  RH  072%=      5-min Rain = 0
KMD1 121102Z 20004KT 26/20 A30 RMK A01 T02580203  RH  072%=      5-min Rain = 0
KMD1 121103Z 21004KT 26/20 A30 RMK A01 T02580204  RH  072%=      5-min Rain = 0
KMD1 121104Z 20004KT 26/20 A30 RMK A01 T02570203  RH  072%=      5-min Rain = 0
KMD1 121105Z 20004KT 26/20 A30 RMK A01 T02570203  RH  072%=      5-min Rain = 0
KMD1 121106Z 18004KT 26/20 A30 RMK A01 T02560204  RH  073%=      5-min Rain = 0
KMD1 121107Z 21005KT 26/20 A30 RMK A01 T02560204  RH  073%=      5-min Rain = 0
KMD1 121108Z 19004KT 26/20 A3001 RMK A01 T02560204  RH  073%=      5-min Rain = 0
KMD1 121109Z 20004KT 26/20 A3001 RMK A01 T02560204  RH  073%=      5-min Rain = 0
KMD1 121110Z 20003KT 26/20 A3001 RMK A01 T02560204  RH  073%=      5-min Rain = 0
KMD1 121111Z 23001KT 26/20 A3001 RMK A01 T02560204  RH  073%=      5-min Rain = 0
KMD1 121112Z 20002KT 26/20 A3001 RMK A01 T02560204  RH  073%=      5-min Rain = 0
KMD1 121113Z 18001KT 26/20 A3001 RMK A01 T02560204  RH  073%=      5-min Rain = 0
KMD1 121114Z 17000KT 26/20 A3001 RMK A01 T02550204  RH  074%=      5-min Rain = 0
KMD1 121115Z 00000KT 26/20 A3001 RMK A01 T02550204  RH  074%=      5-min Rain = 0
KMD1 121116Z 00000KT 25/20 A3002 RMK A01 T02540204  RH  074%=      5-min Rain = 0
KMD1 121117Z 00000KT 25/20 A3002 RMK A01 T02540204  RH  074%=      5-min Rain = 0
KMD1 121118Z 29001KT 25/20 A3002 RMK A01 T02540204  RH  074%=      5-min Rain = 0
KMD1 121119Z 27000KT 25/20 A3002 RMK A01 T02540204  RH  074%=      5-min Rain = 0
KMD1 121120Z 32000KT 25/20 A3002 RMK A01 T02540204  RH  074%=      5-min Rain = 0
KMD1 121121Z 00000KT 25/20 A3002 RMK A01 T02530204  RH  074%=      5-min Rain = 0
KMD1 121122Z 00000KT 25/20 A3002 RMK A01 T02530204  RH  074%=      5-min Rain = 0
KMD1 121123Z 00000KT 25/20 A3002 RMK A01 T02530204  RH  074%=      5-min Rain = 0
KMD1 121124Z 00000KT 25/20 A3002 RMK A01 T02530204  RH  074%=      5-min Rain = 0
KMD1 121125Z 00000KT 25/20 A3002 RMK A01 T02520204  RH  075%=      5-min Rain = 0
KMD1 121126Z 00000KT 25/20 A3002 RMK A01 T02520203  RH  075%=      5-min Rain = 0
KMD1 121127Z 00000KT 25/20 A3002 RMK A01 T02510204  RH  075%=      5-min Rain = 0
KMD1 121128Z 07000KT 25/20 A3002 RMK A01 T02510204  RH  075%=      5-min Rain = 0
KMD1 121129Z 10002KT 25/20 A3003 RMK A01 T02510204  RH  075%=      5-min Rain = 0
KMD1 121130Z 13003KT 25/21 A3003 RMK A01 T02500205  RH  076%=      5-min Rain = 0
KMD1 121131Z 11001KT 25/21 A3003 RMK A01 T02500206  RH  076%=      5-min Rain = 0
KMD1 121132Z 05000KT 25/21 A3003 RMK A01 T02510205  RH  076%=      5-min Rain = 0
KMD1 121133Z 03002KT 25/21 A3004 RMK A01 T02510205  RH  076%=      5-min Rain = 0
KMD1 121134Z 04003KT 25/21 A3004 RMK A01 T02510206  RH  076%=      5-min Rain = 0
KMD1 121135Z 05002KT 25/21 A3004 RMK A01 T02510205  RH  076%=      5-min Rain = 0
KMD1 121136Z 03002KT 25/21 A3004 RMK A01 T02500205  RH  076%=      5-min Rain = 0
KMD1 121137Z 03003KT 25/21 A3004 RMK A01 T02500206  RH  076%=      5-min Rain = 0
KMD1 121138Z 03003KT 25/21 A3005 RMK A01 T02490205  RH  076%=      5-min Rain = 0
KMD1 121139Z 03002KT 25/21 A3005 RMK A01 T02500206  RH  077%=      5-min Rain = 0
KMD1 121140Z 03003KT 25/21 A3005 RMK A01 T02500206  RH  076%=      5-min Rain = 0
KMD1 121141Z 03003KT 25/21 A3005 RMK A01 T02500206  RH  077%=      5-min Rain = 0
KMD1 121142Z 02002KT 25/21 A3005 RMK A01 T02500207  RH  077%=      5-min Rain = 0
KMD1 121143Z 05002KT 25/21 A3005 RMK A01 T02520208  RH  077%=      5-min Rain = 0
KMD1 121144Z 03002KT 25/21 A3005 RMK A01 T02530207  RH  076%=      5-min Rain = 0
KMD1 121145Z 03003KT 25/21 A3005 RMK A01 T02520206  RH  076%=      5-min Rain = 0
KMD1 121146Z 03002KT 25/21 A3005 RMK A01 T02510205  RH  076%=      5-min Rain = 0
KMD1 121147Z 04003KT 25/21 A3005 RMK A01 T02500206  RH  077%=      5-min Rain = 0
KMD1 121148Z 04002KT 25/21 A3005 RMK A01 T02490207  RH  077%=      5-min Rain = 0
KMD1 121149Z 04003KT 25/21 A3005 RMK A01 T02490208  RH  078%=      5-min Rain = 0
KMD1 121150Z 04002KT 25/21 A3005 RMK A01 T02500207  RH  077%=      5-min Rain = 0
KMD1 121151Z 05002KT 25/21 A3006 RMK A01 T02490207  RH  077%=      5-min Rain = 0
KMD1 121152Z 04002KT 25/21 A3006 RMK A01 T02480206  RH  078%=      5-min Rain = 0
KMD1 121153Z 05002KT 25/21 A3006 RMK A01 T02470207  RH  078%=      5-min Rain = 0
KMD1 121154Z 05002KT 25/21 A3006 RMK A01 T02480207  RH  078%=      5-min Rain = 0
KMD1 121155Z 02002KT 25/21 A3006 RMK A01 T02470208  RH  079%=      5-min Rain = 0
KMD1 121156Z 06002KT 25/21 A3006 RMK A01 T02470208  RH  079%=      5-min Rain = 0
KMD1 121157Z 03001KT 25/21 A3006 RMK A01 T02470208  RH  079%=      5-min Rain = 0
KMD1 121158Z 03002KT 25/21 A3006 RMK A01 T02470207  RH  078%=      5-min Rain = 0
KMD1 121159Z 03002KT 25/21 A3007 RMK A01 T02470207  RH  079%=      5-min Rain = 0
KMD1 121200Z 04002KT 25/21 A3007 RMK A01 T02460207  RH  079%=      5-min Rain = 0
KMD1 121201Z 05002KT 25/21 A3007 RMK A01 T02460209  RH  080%=      5-min Rain = 0
KMD1 121202Z 05002KT 25/21 A3007 RMK A01 T02460209  RH  080%=      5-min Rain = 0
KMD1 121203Z 05003KT 25/21 A3007 RMK A01 T02470209  RH  080%=      5-min Rain = 0
KMD1 121204Z 06003KT 25/21 A3007 RMK A01 T02470209  RH  079%=      5-min Rain = 0
KMD1 121205Z 06003KT 25/21 A3007 RMK A01 T02470208  RH  079%=      5-min Rain = 0
KMD1 121206Z 07003KT 25/21 A3007 RMK A01 T02460208  RH  079%=      5-min Rain = 0
KMD1 121207Z 08002KT 25/21 A3007 RMK A01 T02460207  RH  079%=      5-min Rain = 0
KMD1 121208Z 10002KT 25/21 A3007 RMK A01 T02450207  RH  079%=      5-min Rain = 0
KMD1 121209Z 11003KT 24/21 A3007 RMK A01 T02440207  RH  080%=      5-min Rain = 0
KMD1 121210Z 10003KT 24/21 A3007 RMK A01 T02430207  RH  081%=      5-min Rain = 0
KMD1 121211Z 11004KT 24/21 A3007 RMK A01 T02420208  RH  082%=      5-min Rain = 0
KMD1 121212Z 11004KT 24/21 A3007 RMK A01 T02410210  RH  082%=      5-min Rain = 0
KMD1 121213Z 11004KT 24/21 A3007 RMK A01 T02410210  RH  083%=      5-min Rain = 0
KMD1 121214Z 12005KT 24/21 A3008 RMK A01 T02400210  RH  083%=      5-min Rain = 0
KMD1 121215Z 11005KT 24/21 A3008 RMK A01 T02400211  RH  084%=      5-min Rain = 0
KMD1 121216Z 10005KT 24/21 A3008 RMK A01 T02400211  RH  084%=      5-min Rain = 0
KMD1 121217Z 09005KT 24/21 A3008 RMK A01 T02400211  RH  084%=      5-min Rain = 0
KMD1 121218Z 09006KT 24/21 A3008 RMK A01 T02410212  RH  084%=      5-min Rain = 0
KMD1 121219Z 08005KT 24/21 A3008 RMK A01 T02420212  RH  084%=      5-min Rain = 0
KMD1 121220Z 09005KT 24/21 A3008 RMK A01 T02430212  RH  083%=      5-min Rain = 0
KMD1 121221Z 09005KT 24/21 A3008 RMK A01 T02430212  RH  083%=      5-min Rain = 0
KMD1 121222Z 10004KT 24/21 A3008 RMK A01 T02440212  RH  082%=      5-min Rain = 0
KMD1 121223Z 10004KT 24/21 A3008 RMK A01 T02440212  RH  082%=      5-min Rain = 0
KMD1 121224Z 11004KT 24/21 A3008 RMK A01 T02440212  RH  082%=      5-min Rain = 0
KMD1 121225Z 11004KT 24/21 A3008 RMK A01 T02440211  RH  082%=      5-min Rain = 0
KMD1 121226Z 11005KT 24/21 A3008 RMK A01 T02440211  RH  082%=      5-min Rain = 0
KMD1 121227Z 12004KT 25/21 A3008 RMK A01 T02450212  RH  082%=      5-min Rain = 0
KMD1 121228Z 12004KT 25/21 A3007 RMK A01 T02450212  RH  082%=      5-min Rain = 0
KMD1 121229Z 12004KT 25/21 A3007 RMK A01 T02450211  RH  082%=      5-min Rain = 0
KMD1 121230Z 12003KT 25/21 A3008 RMK A01 T02450212  RH  082%=      5-min Rain = 0
KMD1 121231Z 12004KT 24/21 A3008 RMK A01 T02440212  RH  082%=      5-min Rain = 0
KMD1 121232Z 12003KT 24/21 A3008 RMK A01 T02440212  RH  082%=      5-min Rain = 0
KMD1 121233Z 12003KT 24/21 A3008 RMK A01 T02440212  RH  082%=      5-min Rain = 0
KMD1 121234Z 12003KT 24/21 A3008 RMK A01 T02440212  RH  082%=      5-min Rain = 0
KMD1 121235Z 12003KT 24/21 A3008 RMK A01 T02440212  RH  082%=      5-min Rain = 0
KMD1 121236Z 12003KT 24/21 A3007 RMK A01 T02440212  RH  082%=      5-min Rain = 0
KMD1 121237Z 12003KT 24/21 A3007 RMK A01 T02440212  RH  082%=      5-min Rain = 0
KMD1 121238Z 12003KT 24/21 A3007 RMK A01 T02440212  RH  083%=      5-min Rain = 0
KMD1 121239Z 12003KT 24/21 A3007 RMK A01 T02440212  RH  083%=      5-min Rain = 0
KMD1 121240Z 12003KT 24/21 A3007 RMK A01 T02440213  RH  083%=      5-min Rain = 0
KMD1 121241Z 13003KT 24/21 A3007 RMK A01 T02440213  RH  083%=      5-min Rain = 0
KMD1 121242Z 13002KT 24/21 A3007 RMK A01 T02440213  RH  083%=      5-min Rain = 0
KMD1 121243Z 13002KT 25/21 A3007 RMK A01 T02450213  RH  083%=      5-min Rain = 0
KMD1 121244Z 13003KT 25/21 A3007 RMK A01 T02450213  RH  082%=      5-min Rain = 0
KMD1 121245Z 12003KT 25/21 A3007 RMK A01 T02450214  RH  082%=      5-min Rain = 0
KMD1 121246Z 13002KT 25/21 A3008 RMK A01 T02460214  RH  082%=      5-min Rain = 0
KMD1 121247Z 12003KT 25/21 A3008 RMK A01 T02460214  RH  082%=      5-min Rain = 0
KMD1 121248Z 12003KT 25/21 A3008 RMK A01 T02470214  RH  082%=      5-min Rain = 0
KMD1 121249Z 12003KT 25/21 A3008 RMK A01 T02480214  RH  082%=      5-min Rain = 0
KMD1 121250Z 12002KT 25/21 A3008 RMK A01 T02480214  RH  081%=      5-min Rain = 0
KMD1 121251Z 12002KT 25/21 A3008 RMK A01 T02480213  RH  081%=      5-min Rain = 0
KMD1 121252Z 12002KT 25/21 A3008 RMK A01 T02490214  RH  081%=      5-min Rain = 0
KMD1 121253Z 12002KT 25/21 A3008 RMK A01 T02490213  RH  081%=      5-min Rain = 0
KMD1 121254Z 12002KT 25/21 A3008 RMK A01 T02490214  RH  081%=      5-min Rain = 0
KMD1 121255Z 11002KT 25/21 A3008 RMK A01 T02490214  RH  081%=      5-min Rain = 0
KMD1 121256Z 12002KT 25/21 A3008 RMK A01 T02500214  RH  081%=      5-min Rain = 0
KMD1 121257Z 09002KT 25/22 A3008 RMK A01 T02500215  RH  081%=      5-min Rain = 0
KMD1 121258Z 10002KT 25/22 A3008 RMK A01 T02500215  RH  081%=      5-min Rain = 0
KMD1 121259Z 10002KT 25/21 A3008 RMK A01 T02510214  RH  080%=      5-min Rain = 0
KMD1 121300Z 11002KT 25/22 A3008 RMK A01 T02510215  RH  080%=      5-min Rain = 0
KMD1 121301Z 09002KT 25/22 A3008 RMK A01 T02510215  RH  080%=      5-min Rain = 0
KMD1 121302Z 09002KT 25/22 A3008 RMK A01 T02510215  RH  080%=      5-min Rain = 0
KMD1 121303Z 09002KT 25/22 A3008 RMK A01 T02520215  RH  080%=      5-min Rain = 0
KMD1 121304Z 08002KT 25/22 A3008 RMK A01 T02520216  RH  081%=      5-min Rain = 0
KMD1 121305Z 08002KT 25/22 A3008 RMK A01 T02520216  RH  080%=      5-min Rain = 0
KMD1 121306Z 08002KT 25/22 A3008 RMK A01 T02520217  RH  081%=      5-min Rain = 0
KMD1 121307Z 07003KT 25/22 A3008 RMK A01 T02530217  RH  081%=      5-min Rain = 0
KMD1 121308Z 08003KT 25/22 A3008 RMK A01 T02530217  RH  080%=      5-min Rain = 0
KMD1 121309Z 08003KT 25/22 A3008 RMK A01 T02540218  RH  080%=      5-min Rain = 0
KMD1 121310Z 08004KT 25/22 A3008 RMK A01 T02540218  RH  080%=      5-min Rain = 0
KMD1 121311Z 08004KT 26/22 A3008 RMK A01 T02550218  RH  080%=      5-min Rain = 0
KMD1 121312Z 09004KT 26/22 A3008 RMK A01 T02550218  RH  080%=      5-min Rain = 0
KMD1 121313Z 08004KT 26/22 A3008 RMK A01 T02550218  RH  080%=      5-min Rain = 0
KMD1 121314Z 08003KT 26/22 A3008 RMK A01 T02560219  RH  080%=      5-min Rain = 0
KMD1 121315Z 09004KT 26/22 A3008 RMK A01 T02570219  RH  080%=      5-min Rain = 0
KMD1 121316Z 09004KT 26/22 A3008 RMK A01 T02570220  RH  080%=      5-min Rain = 0
KMD1 121317Z 08004KT 26/22 A3008 RMK A01 T02570219  RH  079%=      5-min Rain = 0
KMD1 121318Z 08003KT 26/22 A3008 RMK A01 T02570219  RH  079%=      5-min Rain = 0
KMD1 121319Z 08004KT 26/22 A3008 RMK A01 T02570220  RH  080%=      5-min Rain = 0
KMD1 121320Z 07004KT 26/22 A3008 RMK A01 T02570220  RH  080%=      5-min Rain = 0
KMD1 121321Z 08004KT 26/22 A3008 RMK A01 T02580221  RH  080%=      5-min Rain = 0
KMD1 121322Z 07003KT 26/22 A3008 RMK A01 T02580222  RH  080%=      5-min Rain = 0
KMD1 121323Z 09003KT 26/22 A3008 RMK A01 T02580221  RH  080%=      5-min Rain = 0
KMD1 121324Z 09004KT 26/22 A3008 RMK A01 T02590221  RH  080%=      5-min Rain = 0
KMD1 121325Z 09003KT 26/22 A3008 RMK A01 T02590221  RH  080%=      5-min Rain = 0
KMD1 121326Z 10003KT 26/22 A3008 RMK A01 T02590222  RH  080%=      5-min Rain = 0
KMD1 121327Z 10002KT 26/22 A3008 RMK A01 T02590222  RH  080%=      5-min Rain = 0
KMD1 121328Z 13003KT 26/22 A3008 RMK A01 T02600223  RH  080%=      5-min Rain = 0
KMD1 121329Z 11003KT 26/22 A3008 RMK A01 T02610222  RH  079%=      5-min Rain = 0
KMD1 121330Z 10002KT 26/22 A3008 RMK A01 T02620223  RH  079%=      5-min Rain = 0
KMD1 121331Z 11004KT 26/22 A3008 RMK A01 T02620223  RH  079%=      5-min Rain = 0
KMD1 121332Z 11003KT 26/22 A3008 RMK A01 T02620223  RH  079%=      5-min Rain = 0
KMD1 121333Z 09003KT 26/23 A3009 RMK A01 T02620225  RH  080%=      5-min Rain = 0
KMD1 121334Z 09003KT 26/22 A3009 RMK A01 T02630223  RH  079%=      5-min Rain = 0
KMD1 121335Z 08004KT 26/23 A3009 RMK A01 T02640225  RH  079%=      5-min Rain = 0
KMD1 121336Z 08007KT 26/23 A3009 RMK A01 T02640225  RH  079%=      5-min Rain = 0
KMD1 121337Z 08005KT 27/23 A3009 RMK A01 T02650225  RH  079%=      5-min Rain = 0
KMD1 121338Z 07006KT 26/23 A301 RMK A01 T02640225  RH  079%=      5-min Rain = 0
KMD1 121339Z 06008KT 27/23 A301 RMK A01 T02650225  RH  079%=      5-min Rain = 0
KMD1 121340Z 06008KT 27/23 A301 RMK A01 T02670225  RH  078%=      5-min Rain = 0
KMD1 121341Z 06009KT 27/23 A301 RMK A01 T02680225  RH  077%=      5-min Rain = 0
KMD1 121342Z 06008KT 27/23 A301 RMK A01 T02680226  RH  078%=      5-min Rain = 0
KMD1 121343Z 07010KT 27/23 A301 RMK A01 T02690226  RH  077%=      5-min Rain = 0
KMD1 121344Z 07011KT 27/23 A301 RMK A01 T02690226  RH  077%=      5-min Rain = 0
KMD1 121345Z 06008KT 27/23 A301 RMK A01 T02680227  RH  078%=      5-min Rain = 0
KMD1 121346Z 07007KT 27/23 A301 RMK A01 T02680227  RH  078%=      5-min Rain = 0
KMD1 121347Z 07006KT 27/23 A301 RMK A01 T02680227  RH  078%=      5-min Rain = 0
KMD1 121348Z 07008KT 27/23 A301 RMK A01 T02690226  RH  078%=      5-min Rain = 0
KMD1 121349Z 07008KT 27/23 A301 RMK A01 T02690227  RH  078%=      5-min Rain = 0
KMD1 121350Z 08007KT 27/23 A301 RMK A01 T02690226  RH  077%=      5-min Rain = 0
KMD1 121351Z 06007KT 27/23 A301 RMK A01 T02690227  RH  078%=      5-min Rain = 0
KMD1 121352Z 07009KT 27/23 A301 RMK A01 T02690227  RH  078%=      5-min Rain = 0
KMD1 121353Z 07007KT 27/23 A301 RMK A01 T02700227  RH  077%=      5-min Rain = 0
KMD1 121354Z 07008KT 27/23 A301 RMK A01 T02720227  RH  077%=      5-min Rain = 0
KMD1 121355Z 08008KT 27/23 A301 RMK A01 T02720227  RH  076%=      5-min Rain = 0
KMD1 121356Z 08008KT 27/23 A301 RMK A01 T02720227  RH  076%=      5-min Rain = 0
KMD1 121357Z 08010KT 27/23 A301 RMK A01 T02740227  RH  076%=      5-min Rain = 0
KMD1 121358Z 10010KT 27/23 A301 RMK A01 T02740227  RH  075%=      5-min Rain = 0
KMD1 121359Z 09007KT 27/23 A301 RMK A01 T02740226  RH  075%=      5-min Rain = 0
KMD1 121400Z 07006KT 27/23 A301 RMK A01 T02730227  RH  076%=      5-min Rain = 0
KMD1 121401Z 07008KT 27/23 A301 RMK A01 T02740227  RH  075%=      5-min Rain = 0
KMD1 121402Z 08007KT 28/23 A301 RMK A01 T02750227  RH  075%=      5-min Rain = 0
KMD1 121403Z 07008KT 28/23 A301 RMK A01 T02760227  RH  075%=      5-min Rain = 0
KMD1 121404Z 08008KT 28/23 A301 RMK A01 T02770226  RH  074%=      5-min Rain = 0
KMD1 121405Z 09008KT 28/23 A301 RMK A01 T02770228  RH  075%=      5-min Rain = 0
KMD1 121406Z 11007KT 28/23 A301 RMK A01 T02790226  RH  073%=      5-min Rain = 0
KMD1 121407Z 10008KT 28/23 A301 RMK A01 T02780227  RH  074%=      5-min Rain = 0
KMD1 121408Z 10008KT 28/23 A301 RMK A01 T02780228  RH  074%=      5-min Rain = 0
KMD1 121409Z 09009KT 28/23 A301 RMK A01 T02790227  RH  074%=      5-min Rain = 0
KMD1 121410Z 09009KT 28/23 A301 RMK A01 T02780227  RH  074%=      5-min Rain = 0
KMD1 121411Z 08008KT 28/23 A301 RMK A01 T02770226  RH  074%=      5-min Rain = 0
KMD1 121412Z 08008KT 28/23 A301 RMK A01 T02770226  RH  074%=      5-min Rain = 0
KMD1 121413Z 10007KT 28/23 A301 RMK A01 T02780227  RH  074%=      5-min Rain = 0
KMD1 121414Z 11007KT 28/23 A301 RMK A01 T02800227  RH  073%=      5-min Rain = 0
KMD1 121415Z 10007KT 28/23 A301 RMK A01 T02820227  RH  072%=      5-min Rain = 0
KMD1 121416Z 10006KT 28/23 A301 RMK A01 T02820226  RH  071%=      5-min Rain = 0
KMD1 121417Z 09007KT 28/23 A301 RMK A01 T02800226  RH  072%=      5-min Rain = 0
KMD1 121418Z 08007KT 28/23 A301 RMK A01 T02790226  RH  073%=      5-min Rain = 0
KMD1 121419Z 10008KT 28/22 A301 RMK A01 T02790224  RH  072%=      5-min Rain = 0
KMD1 121420Z 11006KT 28/22 A301 RMK A01 T02780224  RH  073%=      5-min Rain = 0
KMD1 121421Z 11007KT 28/23 A301 RMK A01 T02780225  RH  073%=      5-min Rain = 0
KMD1 121422Z 09007KT 28/23 A301 RMK A01 T02790225  RH  072%=      5-min Rain = 0
KMD1 121423Z 08007KT 28/23 A301 RMK A01 T02800225  RH  072%=      5-min Rain = 0
KMD1 121424Z 08009KT 28/23 A301 RMK A01 T02830225  RH  071%=      5-min Rain = 0
KMD1 121425Z 08007KT 28/23 A301 RMK A01 T02820225  RH  071%=      5-min Rain = 0
KMD1 121426Z 07006KT 28/23 A301 RMK A01 T02810225  RH  071%=      5-min Rain = 0
KMD1 121427Z 08008KT 28/23 A301 RMK A01 T02810225  RH  072%=      5-min Rain = 0
KMD1 121428Z 08008KT 28/22 A301 RMK A01 T02810224  RH  071%=      5-min Rain = 0
KMD1 121429Z 08008KT 28/23 A301 RMK A01 T02810225  RH  071%=      5-min Rain = 0
KMD1 121430Z 10009KT 28/23 A301 RMK A01 T02840225  RH  071%=      5-min Rain = 0
KMD1 121431Z 11010KT 29/23 A301 RMK A01 T02850225  RH  070%=      5-min Rain = 0
KMD1 121432Z 11010KT 28/22 A301 RMK A01 T02830224  RH  070%=      5-min Rain = 0
KMD1 121433Z 09008KT 28/22 A301 RMK A01 T02840223  RH  070%=      5-min Rain = 0
KMD1 121434Z 09009KT 28/22 A301 RMK A01 T02840224  RH  070%=      5-min Rain = 0
KMD1 121435Z 09006KT 29/22 A301 RMK A01 T02850223  RH  069%=      5-min Rain = 0
KMD1 121436Z 09006KT 29/23 A301 RMK A01 T02850225  RH  070%=      5-min Rain = 0
KMD1 121437Z 10007KT 29/22 A301 RMK A01 T02860224  RH  069%=      5-min Rain = 0
KMD1 121438Z 11007KT 29/23 A301 RMK A01 T02860225  RH  070%=      5-min Rain = 0
KMD1 121439Z 09007KT 29/23 A301 RMK A01 T02880225  RH  069%=      5-min Rain = 0
KMD1 121440Z 12008KT 29/22 A301 RMK A01 T02880224  RH  068%=      5-min Rain = 0
KMD1 121441Z 13006KT 29/23 A301 RMK A01 T02870225  RH  069%=      5-min Rain = 0
KMD1 121442Z 10007KT 29/22 A301 RMK A01 T02880224  RH  068%=      5-min Rain = 0
KMD1 121443Z 07006KT 29/22 A301 RMK A01 T02880224  RH  068%=      5-min Rain = 0
KMD1 121444Z 08005KT 29/22 A301 RMK A01 T02880224  RH  069%=      5-min Rain = 0
KMD1 121445Z 08006KT 29/22 A301 RMK A01 T02870224  RH  069%=      5-min Rain = 0
KMD1 121446Z 11006KT 29/23 A301 RMK A01 T02880225  RH  069%=      5-min Rain = 0
KMD1 121447Z 12006KT 29/22 A301 RMK A01 T02880221  RH  067%=      5-min Rain = 0
KMD1 121448Z 12004KT 29/22 A3009 RMK A01 T02860221  RH  068%=      5-min Rain = 0
KMD1 121449Z 11005KT 29/23 A3009 RMK A01 T02870226  RH  069%=      5-min Rain = 0
KMD1 121450Z 10006KT 29/23 A3009 RMK A01 T02910226  RH  068%=      5-min Rain = 0
KMD1 121451Z 09007KT 29/23 A3009 RMK A01 T02930225  RH  067%=      5-min Rain = 0
KMD1 121452Z 10005KT 29/23 A3009 RMK A01 T02910226  RH  068%=      5-min Rain = 0
KMD1 121453Z 08005KT 29/23 A3009 RMK A01 T02890225  RH  069%=      5-min Rain = 0
KMD1 121454Z 10007KT 29/23 A3009 RMK A01 T02880225  RH  069%=      5-min Rain = 0
KMD1 121455Z 11007KT 29/23 A3009 RMK A01 T02890226  RH  069%=      5-min Rain = 0
KMD1 121456Z 09007KT 29/23 A3009 RMK A01 T02920226  RH  068%=      5-min Rain = 0
KMD1 121457Z 11007KT 29/23 A3009 RMK A01 T02940226  RH  067%=      5-min Rain = 0
KMD1 121458Z 10007KT 29/23 A3009 RMK A01 T02940225  RH  066%=      5-min Rain = 0
KMD1 121459Z 11007KT 29/23 A3009 RMK A01 T02920225  RH  067%=      5-min Rain = 0
KMD1 121500Z 11008KT 29/23 A3009 RMK A01 T02910225  RH  068%=      5-min Rain = 0
KMD1 121501Z 11008KT 29/22 A3009 RMK A01 T02910223  RH  067%=      5-min Rain = 0
KMD1 121502Z 10006KT 29/22 A3009 RMK A01 T02910223  RH  067%=      5-min Rain = 0
KMD1 121503Z 13006KT 29/22 A3009 RMK A01 T02910223  RH  066%=      5-min Rain = 0
KMD1 121504Z 14007KT 29/22 A3009 RMK A01 T02930224  RH  066%=      5-min Rain = 0
KMD1 121505Z 13006KT 29/23 A3009 RMK A01 T02940225  RH  066%=      5-min Rain = 0
KMD1 121506Z 11007KT 29/23 A3009 RMK A01 T02940225  RH  066%=      5-min Rain = 0
KMD1 121507Z 14007KT 30/22 A3009 RMK A01 T02950222  RH  065%=      5-min Rain = 0
KMD1 121508Z 15005KT 30/22 A3008 RMK A01 T02960222  RH  065%=      5-min Rain = 0
KMD1 121509Z 14005KT 30/22 A3008 RMK A01 T02980222  RH  064%=      5-min Rain = 0
KMD1 121510Z 12005KT 30/22 A3008 RMK A01 T02980224  RH  064%=      5-min Rain = 0
KMD1 121511Z 12005KT 30/23 A3008 RMK A01 T02980225  RH  065%=      5-min Rain = 0
KMD1 121512Z 13006KT 30/23 A3008 RMK A01 T02970226  RH  065%=      5-min Rain = 0
KMD1 121513Z 15006KT 30/22 A3008 RMK A01 T02980224  RH  065%=      5-min Rain = 0
KMD1 121514Z 16007KT 30/22 A3008 RMK A01 T03000222  RH  063%=      5-min Rain = 0
KMD1 121515Z 13006KT 30/22 A3008 RMK A01 T03010224  RH  064%=      5-min Rain = 0
KMD1 121516Z 11003KT 30/23 A3008 RMK A01 T03010227  RH  065%=      5-min Rain = 0
KMD1 121517Z 13003KT 30/23 A3008 RMK A01 T03000227  RH  065%=      5-min Rain = 0
KMD1 121518Z 11005KT 30/23 A3008 RMK A01 T03020227  RH  064%=      5-min Rain = 0
KMD1 121519Z 13007KT 31/23 A3008 RMK A01 T03050226  RH  063%=      5-min Rain = 0
KMD1 121520Z 12009KT 31/22 A3008 RMK A01 T03070224  RH  061%=      5-min Rain = 0
KMD1 121521Z 12010KT 31/22 A3008 RMK A01 T03060223  RH  061%=      5-min Rain = 0
KMD1 121522Z 11007KT 30/22 A3008 RMK A01 T03040224  RH  062%=      5-min Rain = 0
KMD1 121523Z 13007KT 30/22 A3008 RMK A01 T03040224  RH  062%=      5-min Rain = 0
KMD1 121524Z 14007KT 31/22 A3008 RMK A01 T03060221  RH  061%=      5-min Rain = 0
KMD1 121525Z 13007KT 31/22 A3007 RMK A01 T03060224  RH  062%=      5-min Rain = 0
KMD1 121526Z 15006KT 31/22 A3007 RMK A01 T03070224  RH  061%=      5-min Rain = 0
KMD1 121527Z 14006KT 31/22 A3007 RMK A01 T03070224  RH  061%=      5-min Rain = 0
KMD1 121528Z 13008KT 31/22 A3007 RMK A01 T03070223  RH  061%=      5-min Rain = 0
KMD1 121529Z 14006KT 31/22 A3007 RMK A01 T03060223  RH  061%=      5-min Rain = 0
KMD1 121530Z 12008KT 31/22 A3007 RMK A01 T03060223  RH  061%=      5-min Rain = 0
KMD1 121531Z 12007KT 31/22 A3007 RMK A01 T03060222  RH  061%=      5-min Rain = 0
KMD1 121532Z 14008KT 31/22 A3007 RMK A01 T03060222  RH  061%=      5-min Rain = 0
KMD1 121533Z 15006KT 31/22 A3007 RMK A01 T03070221  RH  060%=      5-min Rain = 0
KMD1 121534Z 13006KT 31/22 A3007 RMK A01 T03060223  RH  061%=      5-min Rain = 0
KMD1 121535Z 13005KT 30/22 A3007 RMK A01 T03040222  RH  062%=      5-min Rain = 0
KMD1 121536Z 13006KT 30/22 A3007 RMK A01 T03030223  RH  062%=      5-min Rain = 0
KMD1 121537Z 12007KT 30/22 A3007 RMK A01 T03040222  RH  062%=      5-min Rain = 0
KMD1 121538Z 13009KT 31/22 A3007 RMK A01 T03070222  RH  060%=      5-min Rain = 0
KMD1 121539Z 13010KT 31/22 A3007 RMK A01 T03090222  RH  060%=      5-min Rain = 0
KMD1 121540Z 16008KT 31/22 A3007 RMK A01 T03090223  RH  060%=      5-min Rain = 0
KMD1 121541Z 16006KT 31/22 A3007 RMK A01 T03080224  RH  061%=      5-min Rain = 0
KMD1 121542Z 15006KT 31/23 A3006 RMK A01 T03080225  RH  061%=      5-min Rain = 0
KMD1 121543Z 15007KT 31/22 A3007 RMK A01 T03100224  RH  060%=      5-min Rain = 0
KMD1 121544Z 15006KT 31/22 A3007 RMK A01 T03120222  RH  059%=      5-min Rain = 0
KMD1 121545Z 14006KT 31/22 A3006 RMK A01 T03110222  RH  059%=      5-min Rain = 0
KMD1 121546Z 16006KT 31/22 A3006 RMK A01 T03110223  RH  059%=      5-min Rain = 0
KMD1 121547Z 13006KT 31/22 A3007 RMK A01 T03140222  RH  058%=      5-min Rain = 0
KMD1 121548Z 12007KT 32/22 A3007 RMK A01 T03150223  RH  058%=      5-min Rain = 0
KMD1 121549Z 12009KT 32/22 A3007 RMK A01 T03150223  RH  058%=      5-min Rain = 0
KMD1 121550Z 13008KT 32/22 A3007 RMK A01 T03160223  RH  058%=      5-min Rain = 0
KMD1 121551Z 14006KT 32/22 A3007 RMK A01 T03160223  RH  058%=      5-min Rain = 0
KMD1 121552Z 13008KT 32/22 A3007 RMK A01 T03150222  RH  058%=      5-min Rain = 0
KMD1 121553Z 14007KT 31/22 A3007 RMK A01 T03130220  RH  058%=      5-min Rain = 0
KMD1 121554Z 15006KT 31/22 A3007 RMK A01 T03120220  RH  058%=      5-min Rain = 0
KMD1 121555Z 16007KT 31/22 A3006 RMK A01 T03140219  RH  057%=      5-min Rain = 0
KMD1 121556Z 16006KT 32/22 A3006 RMK A01 T03170219  RH  056%=      5-min Rain = 0
KMD1 121557Z 15005KT 32/22 A3006 RMK A01 T03170220  RH  056%=      5-min Rain = 0
KMD1 121558Z 17005KT 32/22 A3006 RMK A01 T03170218  RH  056%=      5-min Rain = 0
KMD1 121559Z 16006KT 32/22 A3006 RMK A01 T03150220  RH  057%=      5-min Rain = 0
KMD1 121600Z 15008KT 32/22 A3006 RMK A01 T03160219  RH  057%=      5-min Rain = 0
KMD1 121601Z 16007KT 32/22 A3006 RMK A01 T03170218  RH  056%=      5-min Rain = 0
KMD1 121602Z 14006KT 32/22 A3006 RMK A01 T03160218  RH  056%=      5-min Rain = 0
KMD1 121603Z 14005KT 32/22 A3006 RMK A01 T03150219  RH  057%=      5-min Rain = 0
KMD1 121604Z 13005KT 32/22 A3006 RMK A01 T03180221  RH  056%=      5-min Rain = 0
KMD1 121605Z 14007KT 32/22 A3006 RMK A01 T03230219  RH  054%=      5-min Rain = 0
KMD1 121606Z 15008KT 32/22 A3006 RMK A01 T03230218  RH  054%=      5-min Rain = 0
KMD1 121607Z 13007KT 32/22 A3006 RMK A01 T03210217  RH  054%=      5-min Rain = 0
KMD1 121608Z 16007KT 32/22 A3006 RMK A01 T03220218  RH  054%=      5-min Rain = 0
KMD1 121609Z 15009KT 33/22 A3006 RMK A01 T03250218  RH  053%=      5-min Rain = 0
KMD1 121610Z 14007KT 32/22 A3006 RMK A01 T03240219  RH  054%=      5-min Rain = 0
KMD1 121611Z 12008KT 32/22 A3006 RMK A01 T03230216  RH  053%=      5-min Rain = 0
KMD1 121612Z 12008KT 32/22 A3006 RMK A01 T03240216  RH  053%=      5-min Rain = 0
KMD1 121613Z 15007KT 32/22 A3006 RMK A01 T03230217  RH  053%=      5-min Rain = 0
KMD1 121614Z 19007KT 32/22 A3006 RMK A01 T03240217  RH  053%=      5-min Rain = 0
KMD1 121615Z 18009KT 32/22 A3006 RMK A01 T03230218  RH  054%=      5-min Rain = 0
KMD1 121616Z 15006KT 32/22 A3006 RMK A01 T03230218  RH  054%=      5-min Rain = 0
KMD1 121617Z 14006KT 32/22 A3006 RMK A01 T03230217  RH  053%=      5-min Rain = 0
KMD1 121618Z 14003KT 32/22 A3006 RMK A01 T03220215  RH  053%=      5-min Rain = 0
KMD1 121619Z 13004KT 32/22 A3006 RMK A01 T03220217  RH  054%=      5-min Rain = 0
KMD1 121620Z 16002KT 32/22 A3006 RMK A01 T03230215  RH  053%=      5-min Rain = 0
KMD1 121621Z 12004KT 33/22 A3006 RMK A01 T03250217  RH  053%=      5-min Rain = 0
KMD1 121622Z 11006KT 33/22 A3006 RMK A01 T03280219  RH  053%=      5-min Rain = 0
KMD1 121623Z 13006KT 33/22 A3006 RMK A01 T03290218  RH  052%=      5-min Rain = 0
KMD1 121624Z 14008KT 33/21 A3006 RMK A01 T03290212  RH  050%=      5-min Rain = 0
KMD1 121625Z 16008KT 33/21 A3006 RMK A01 T03300214  RH  050%=      5-min Rain = 0
KMD1 121626Z 16005KT 33/21 A3006 RMK A01 T03330212  RH  049%=      5-min Rain = 0
KMD1 121627Z 15007KT 33/21 A3006 RMK A01 T03310214  RH  050%=      5-min Rain = 0
KMD1 121628Z 14007KT 33/21 A3006 RMK A01 T03310213  RH  050%=      5-min Rain = 0
KMD1 121629Z 14006KT 33/21 A3006 RMK A01 T03310213  RH  050%=      5-min Rain = 0
KMD1 121630Z 13006KT 33/21 A3006 RMK A01 T03310209  RH  049%=      5-min Rain = 0
KMD1 121631Z 12006KT 33/21 A3006 RMK A01 T03330209  RH  048%=      5-min Rain = 0
KMD1 121632Z 14006G11KT 33/21 A3006 RMK A01 T03340209  RH  048%=      5-min Rain = 0
KMD1 121633Z 15009KT 33/21 A3006 RMK A01 T03340209  RH  048%=      5-min Rain = 0
KMD1 121634Z 16010KT 34/21 A3006 RMK A01 T03360208  RH  047%=      5-min Rain = 0
KMD1 121635Z 16009KT 34/21 A3006 RMK A01 T03370208  RH  047%=      5-min Rain = 0
KMD1 121636Z 15008KT 34/21 A3006 RMK A01 T03370207  RH  047%=      5-min Rain = 0
KMD1 121637Z 15005KT 34/21 A3006 RMK A01 T03380207  RH  046%=      5-min Rain = 0
KMD1 121638Z 13004KT 34/21 A3006 RMK A01 T03370209  RH  047%=      5-min Rain = 0
KMD1 121639Z 13002KT 33/21 A3006 RMK A01 T03340211  RH  048%=      5-min Rain = 0
KMD1 121640Z 12006G12KT 34/21 A3006 RMK A01 T03350213  RH  049%=      5-min Rain = 0
KMD1 121641Z 17010KT 34/21 A3006 RMK A01 T03410212  RH  047%=      5-min Rain = 0
KMD1 121642Z 18010KT 34/21 A3006 RMK A01 T03410209  RH  046%=      5-min Rain = 0
KMD1 121643Z 16008KT 34/21 A3006 RMK A01 T03400210  RH  047%=      5-min Rain = 0
KMD1 121644Z 17008KT 34/21 A3006 RMK A01 T03410209  RH  046%=      5-min Rain = 0
KMD1 121645Z 17008KT 34/21 A3006 RMK A01 T03410208  RH  046%=      5-min Rain = 0
KMD1 121646Z 16004KT 34/21 A3006 RMK A01 T03380208  RH  047%=      5-min Rain = 0
KMD1 121647Z 16003KT 34/21 A3005 RMK A01 T03380209  RH  047%=      5-min Rain = 0
KMD1 121648Z 15006KT 34/21 A3005 RMK A01 T03410209  RH  046%=      5-min Rain = 0
KMD1 121649Z 15007KT 34/21 A3005 RMK A01 T03440208  RH  045%=      5-min Rain = 0
KMD1 121650Z 15004KT 34/21 A3005 RMK A01 T03420210  RH  046%=      5-min Rain = 0
KMD1 121651Z 16006KT 34/21 A3005 RMK A01 T03420210  RH  046%=      5-min Rain = 0
KMD1 121652Z 16006KT 34/21 A3005 RMK A01 T03430212  RH  047%=      5-min Rain = 0
KMD1 121653Z 18008KT 35/21 A3005 RMK A01 T03450212  RH  046%=      5-min Rain = 0
KMD1 121654Z 16007KT 35/21 A3005 RMK A01 T03450212  RH  046%=      5-min Rain = 0
KMD1 121655Z 15007KT 34/21 A3005 RMK A01 T03430209  RH  046%=      5-min Rain = 0
KMD1 121656Z 16005KT 34/21 A3005 RMK A01 T03400209  RH  046%=      5-min Rain = 0
KMD1 121657Z 17006G11KT 34/21 A3005 RMK A01 T03400209  RH  047%=      5-min Rain = 0
KMD1 121658Z 16007KT 34/21 A3005 RMK A01 T03420206  RH  045%=      5-min Rain = 0
KMD1 121659Z 16009KT 34/21 A3005 RMK A01 T03440209  RH  045%=      5-min Rain = 0
KMD1 121700Z 17006KT 35/21 A3005 RMK A01 T03460209  RH  045%=      5-min Rain = 0
KMD1 121701Z 16007KT 35/21 A3005 RMK A01 T03470209  RH  045%=      5-min Rain = 0
KMD1 121702Z 16004KT 35/21 A3005 RMK A01 T03470208  RH  044%=      5-min Rain = 0
KMD1 121703Z 13006KT 35/21 A3005 RMK A01 T03500208  RH  044%=      5-min Rain = 0
KMD1 121704Z 13008KT 35/21 A3005 RMK A01 T03500210  RH  044%=      5-min Rain = 0
KMD1 121705Z 14009KT 35/21 A3005 RMK A01 T03530210  RH  043%=      5-min Rain = 0
KMD1 121706Z 15007KT 35/21 A3005 RMK A01 T03530205  RH  042%=      5-min Rain = 0
KMD1 121707Z 19008KT 35/21 A3005 RMK A01 T03490205  RH  043%=      5-min Rain = 0
KMD1 121708Z 19006KT 35/20 A3005 RMK A01 T03500200  RH  041%=      5-min Rain = 0
KMD1 121709Z 17007KT 35/20 A3005 RMK A01 T03490202  RH  042%=      5-min Rain = 0
KMD1 121710Z 17007KT 35/21 A3005 RMK A01 T03470205  RH  043%=      5-min Rain = 0
KMD1 121711Z 17005KT 35/21 A3005 RMK A01 T03450205  RH  044%=      5-min Rain = 0
KMD1 121712Z 16005KT 35/20 A3005 RMK A01 T03450204  RH  044%=      5-min Rain = 0
KMD1 121713Z 13005KT 35/20 A3005 RMK A01 T03480204  RH  043%=      5-min Rain = 0
KMD1 121714Z 14004KT 35/20 A3005 RMK A01 T03500202  RH  042%=      5-min Rain = 0
KMD1 121715Z 15004KT 35/20 A3005 RMK A01 T03480202  RH  042%=      5-min Rain = 0
KMD1 121716Z 19004KT 35/20 A3005 RMK A01 T03490203  RH  043%=      5-min Rain = 0
KMD1 121717Z 20007KT 35/19 A3004 RMK A01 T03500190  RH  039%=      5-min Rain = 0
KMD1 121718Z 18009KT 35/19 A3004 RMK A01 T03530192  RH  039%=      5-min Rain = 0
KMD1 121719Z 17005KT 35/20 A3004 RMK A01 T03540195  RH  039%=      5-min Rain = 0
KMD1 121720Z 20005KT 35/20 A3004 RMK A01 T03540195  RH  039%=      5-min Rain = 0
KMD1 121721Z 21005KT 36/19 A3004 RMK A01 T03550190  RH  038%=      5-min Rain = 0
KMD1 121722Z 22007KT 36/19 A3004 RMK A01 T03560193  RH  039%=      5-min Rain = 0
KMD1 121723Z 21007KT 36/19 A3004 RMK A01 T03570192  RH  038%=      5-min Rain = 0
KMD1 121724Z 20009KT 36/19 A3004 RMK A01 T03560193  RH  038%=      5-min Rain = 0
KMD1 121725Z 21008KT 36/20 A3004 RMK A01 T03560195  RH  039%=      5-min Rain = 0
KMD1 121726Z 20005KT 35/19 A3004 RMK A01 T03530190  RH  038%=      5-min Rain = 0
KMD1 121727Z 18006KT 35/19 A3004 RMK A01 T03520194  RH  040%=      5-min Rain = 0
KMD1 121728Z 18007KT 35/20 A3004 RMK A01 T03540195  RH  039%=      5-min Rain = 0
KMD1 121729Z 19007KT 36/20 A3003 RMK A01 T03550198  RH  040%=      5-min Rain = 0
KMD1 121730Z 20004KT 36/20 A3003 RMK A01 T03550197  RH  040%=      5-min Rain = 0
KMD1 121731Z 21004KT 35/20 A3003 RMK A01 T03540198  RH  040%=      5-min Rain = 0
KMD1 121732Z 21005KT 36/20 A3003 RMK A01 T03550197  RH  040%=      5-min Rain = 0
KMD1 121733Z 21006KT 36/20 A3003 RMK A01 T03580198  RH  039%=      5-min Rain = 0
KMD1 121734Z 17009KT 36/20 A3003 RMK A01 T03600198  RH  039%=      5-min Rain = 0
KMD1 121735Z 16009KT 36/20 A3003 RMK A01 T03620201  RH  039%=      5-min Rain = 0
KMD1 121736Z 19008KT 36/19 A3003 RMK A01 T03610191  RH  037%=      5-min Rain = 0
KMD1 121737Z 20009KT 36/19 A3003 RMK A01 T03610187  RH  036%=      5-min Rain = 0
KMD1 121738Z 19006KT 36/19 A3003 RMK A01 T03600189  RH  037%=      5-min Rain = 0
KMD1 121739Z 20008KT 36/19 A3003 RMK A01 T03610190  RH  037%=      5-min Rain = 0
KMD1 121740Z 20007KT 36/19 A3003 RMK A01 T03610190  RH  037%=      5-min Rain = 0
KMD1 121741Z 20007KT 36/19 A3003 RMK A01 T03610192  RH  037%=      5-min Rain = 0
KMD1 121742Z 21007KT 36/19 A3003 RMK A01 T03640194  RH  037%=      5-min Rain = 0
KMD1 121743Z 20012KT 37/19 A3003 RMK A01 T03660193  RH  036%=      5-min Rain = 0
KMD1 121744Z 20010KT 36/19 A3003 RMK A01 T03630190  RH  036%=      5-min Rain = 0
KMD1 121745Z 22007KT 36/19 A3003 RMK A01 T03590190  RH  037%=      5-min Rain = 0
KMD1 121746Z 20006KT 36/19 A3003 RMK A01 T03600187  RH  036%=      5-min Rain = 0
KMD1 121747Z 20006KT 36/19 A3003 RMK A01 T03580188  RH  037%=      5-min Rain = 0
KMD1 121748Z 16009KT 36/18 A3003 RMK A01 T03590183  RH  036%=      5-min Rain = 0
KMD1 121749Z 16010KT 36/18 A3003 RMK A01 T03620178  RH  034%=      5-min Rain = 0
KMD1 121750Z 17012KT 37/18 A3002 RMK A01 T03650182  RH  034%=      5-min Rain = 0
KMD1 121751Z 17011KT 36/18 A3002 RMK A01 T03630181  RH  034%=      5-min Rain = 0
KMD1 121752Z 17011KT 36/18 A3002 RMK A01 T03630179  RH  034%=      5-min Rain = 0
KMD1 121753Z 17010KT 36/18 A3002 RMK A01 T03620176  RH  033%=      5-min Rain = 0
KMD1 121754Z 18011KT 36/17 A3002 RMK A01 T03600174  RH  033%=      5-min Rain = 0
KMD1 121755Z 18010KT 36/18 A3002 RMK A01 T03620176  RH  034%=      5-min Rain = 0
KMD1 121756Z 18008KT 36/18 A3002 RMK A01 T03640179  RH  034%=      5-min Rain = 0
KMD1 121757Z 18011KT 36/18 A3002 RMK A01 T03640177  RH  033%=      5-min Rain = 0
KMD1 121758Z 18010KT 36/18 A3002 RMK A01 T03630177  RH  033%=      5-min Rain = 0
KMD1 121759Z 19007KT 36/18 A3002 RMK A01 T03630177  RH  034%=      5-min Rain = 0
KMD1 121800Z 17009KT 36/18 A3002 RMK A01 T03640178  RH  034%=      5-min Rain = 0
KMD1 121801Z 18005KT 37/18 A3002 RMK A01 T03660178  RH  033%=      5-min Rain = 0
KMD1 121802Z 15005KT 37/18 A3002 RMK A01 T03690177  RH  033%=      5-min Rain = 0
KMD1 121803Z 21008KT 37/18 A3002 RMK A01 T03690180  RH  033%=      5-min Rain = 0
KMD1 121804Z 21008KT 37/18 A3002 RMK A01 T03690177  RH  032%=      5-min Rain = 0
KMD1 121805Z 18006KT 37/18 A3002 RMK A01 T03660177  RH  033%=      5-min Rain = 0
KMD1 121806Z 17006KT 37/18 A3002 RMK A01 T03660178  RH  033%=      5-min Rain = 0
KMD1 121807Z 18008G14KT 37/18 A3002 RMK A01 T03650179  RH  034%=      5-min Rain = 0
KMD1 121808Z 18010KT 37/17 A3002 RMK A01 T03670169  RH  031%=      5-min Rain = 0
KMD1 121809Z 18008KT 37/16 A3002 RMK A01 T03690163  RH  030%=      5-min Rain = 0
KMD1 121810Z 16010KT 37/17 A3002 RMK A01 T03680167  RH  030%=      5-min Rain = 0
KMD1 121811Z 15009KT 37/18 A3002 RMK A01 T03720177  RH  032%=      5-min Rain = 0
KMD1 121812Z 14010KT 37/17 A3002 RMK A01 T03730174  RH  031%=      5-min Rain = 0
KMD1 121813Z 13008KT 37/17 A3002 RMK A01 T03700172  RH  031%=      5-min Rain = 0
KMD1 121814Z 14008G13KT 37/17 A3002 RMK A01 T03690170  RH  031%=      5-min Rain = 0
KMD1 121815Z 18009KT 37/17 A3002 RMK A01 T03710172  RH  031%=      5-min Rain = 0
KMD1 121816Z 20008KT 38/17 A3002 RMK A01 T03750172  RH  031%=      5-min Rain = 0
KMD1 121817Z 25005KT 37/17 A3001 RMK A01 T03730168  RH  030%=      5-min Rain = 0
KMD1 121818Z 26005KT 37/17 A3001 RMK A01 T03700167  RH  030%=      5-min Rain = 0
KMD1 121819Z 20003KT 37/17 A3001 RMK A01 T03680168  RH  031%=      5-min Rain = 0
KMD1 121820Z 16009KT 37/17 A3001 RMK A01 T03700172  RH  031%=      5-min Rain = 0
KMD1 121821Z 15009KT 37/17 A3001 RMK A01 T03720170  RH  030%=      5-min Rain = 0
KMD1 121822Z 15008KT 37/17 A3001 RMK A01 T03700168  RH  031%=      5-min Rain = 0
KMD1 121823Z 18006KT 37/17 A3001 RMK A01 T03680170  RH  031%=      5-min Rain = 0
KMD1 121824Z 20004KT 37/17 A3001 RMK A01 T03700168  RH  030%=      5-min Rain = 0
KMD1 121825Z 14003KT 37/17 A3001 RMK A01 T03690170  RH  031%=      5-min Rain = 0
KMD1 121826Z 17005KT 37/17 A3001 RMK A01 T03700172  RH  031%=      5-min Rain = 0
KMD1 121827Z 18010G15KT 37/17 A3001 RMK A01 T03730168  RH  030%=      5-min Rain = 0
KMD1 121828Z 18009G14KT 38/17 A3001 RMK A01 T03760165  RH  029%=      5-min Rain = 0
KMD1 121829Z 19008KT 37/17 A3001 RMK A01 T03740167  RH  030%=      5-min Rain = 0
KMD1 121830Z 17008KT 37/17 A3001 RMK A01 T03740166  RH  029%=      5-min Rain = 0
KMD1 121831Z 18005KT 37/16 A3001 RMK A01 T03740160  RH  028%=      5-min Rain = 0
KMD1 121832Z 16005KT 37/16 A3001 RMK A01 T03720162  RH  029%=      5-min Rain = 0
KMD1 121833Z 14007KT 37/17 A3001 RMK A01 T03720165  RH  030%=      5-min Rain = 0
KMD1 121834Z 16006KT 37/16 A3001 RMK A01 T03730158  RH  028%=      5-min Rain = 0
KMD1 121835Z 17008G14KT 37/16 A30 RMK A01 T03740161  RH  028%=      5-min Rain = 0
KMD1 121836Z 16012G17KT 38/16 A30 RMK A01 T03770159  RH  028%=      5-min Rain = 0
KMD1 121837Z 16012KT 38/15 A3001 RMK A01 T03800150  RH  026%=      5-min Rain = 0
KMD1 121838Z 19004KT 38/15 A3001 RMK A01 T03780152  RH  026%=      5-min Rain = 0
KMD1 121839Z 22001KT 38/15 A30 RMK A01 T03760151  RH  026%=      5-min Rain = 0
KMD1 121840Z 20003KT 38/16 A30 RMK A01 T03760156  RH  027%=      5-min Rain = 0
KMD1 121841Z 18007G13KT 38/16 A30 RMK A01 T03790160  RH  028%=      5-min Rain = 0
KMD1 121842Z 15008KT 38/16 A30 RMK A01 T03820157  RH  027%=      5-min Rain = 0
KMD1 121843Z 18009KT 38/16 A30 RMK A01 T03820161  RH  027%=      5-min Rain = 0
KMD1 121844Z 17008KT 38/16 A30 RMK A01 T03810161  RH  028%=      5-min Rain = 0
KMD1 121845Z 16013KT 38/16 A30 RMK A01 T03790159  RH  027%=      5-min Rain = 0
KMD1 121846Z 21012KT 38/16 A30 RMK A01 T03790156  RH  027%=      5-min Rain = 0
KMD1 121847Z 20011KT 38/16 A30 RMK A01 T03790157  RH  027%=      5-min Rain = 0
KMD1 121848Z 20012KT 38/16 A30 RMK A01 T03800155  RH  026%=      5-min Rain = 0
KMD1 121849Z 20010KT 38/15 A30 RMK A01 T03790151  RH  026%=      5-min Rain = 0
KMD1 121850Z 20006G11KT 38/15 A30 RMK A01 T03780150  RH  026%=      5-min Rain = 0
KMD1 121851Z 19008KT 38/15 A2999 RMK A01 T03780147  RH  026%=      5-min Rain = 0
KMD1 121852Z 18008KT 38/14 A2999 RMK A01 T03780144  RH  025%=      5-min Rain = 0
KMD1 121853Z 18011KT 38/15 A2999 RMK A01 T03780152  RH  026%=      5-min Rain = 0
KMD1 121854Z 17013KT 38/16 A2999 RMK A01 T03810156  RH  027%=      5-min Rain = 0
KMD1 121855Z 16013KT 38/15 A2999 RMK A01 T03820152  RH  026%=      5-min Rain = 0
KMD1 121856Z 16010KT 38/15 A2999 RMK A01 T03800147  RH  025%=      5-min Rain = 0
KMD1 121857Z 16009KT 38/15 A2999 RMK A01 T03780147  RH  025%=      5-min Rain = 0
KMD1 121858Z 16007KT 38/15 A2999 RMK A01 T03780149  RH  026%=      5-min Rain = 0
KMD1 121859Z 14008KT 38/15 A2999 RMK A01 T03790150  RH  026%=      5-min Rain = 0
KMD1 121900Z 15006KT 38/15 A2999 RMK A01 T03790150  RH  026%=      5-min Rain = 0
KMD1 121901Z 17006KT 38/15 A2999 RMK A01 T03810153  RH  026%=      5-min Rain = 0
KMD1 121902Z 20011KT 39/16 A2999 RMK A01 T03850155  RH  026%=      5-min Rain = 0
KMD1 121903Z 23009KT 39/15 A2999 RMK A01 T03850150  RH  025%=      5-min Rain = 0
KMD1 121904Z 23007KT 38/15 A2999 RMK A01 T03820147  RH  025%=      5-min Rain = 0
KMD1 121905Z 20010KT 38/15 A2998 RMK A01 T03800149  RH  025%=      5-min Rain = 0
KMD1 121906Z 19008KT 38/15 A2998 RMK A01 T03770146  RH  025%=      5-min Rain = 0
KMD1 121907Z 17010KT 38/15 A2998 RMK A01 T03770146  RH  025%=      5-min Rain = 0
KMD1 121908Z 17010KT 38/15 A2998 RMK A01 T03810148  RH  025%=      5-min Rain = 0
KMD1 121909Z 17010G15KT 38/15 A2998 RMK A01 T03800149  RH  025%=      5-min Rain = 0
KMD1 121910Z 16008KT 38/15 A2998 RMK A01 T03800149  RH  025%=      5-min Rain = 0
KMD1 121911Z 17006KT 38/15 A2998 RMK A01 T03810150  RH  026%=      5-min Rain = 0
KMD1 121912Z 17009G18KT 38/15 A2998 RMK A01 T03820151  RH  026%=      5-min Rain = 0
KMD1 121913Z 18010KT 38/15 A2998 RMK A01 T03830154  RH  026%=      5-min Rain = 0
KMD1 121914Z 21007KT 39/15 A2998 RMK A01 T03850153  RH  025%=      5-min Rain = 0
KMD1 121915Z 15010KT 38/15 A2998 RMK A01 T03830153  RH  026%=      5-min Rain = 0
KMD1 121916Z 16006KT 38/15 A2998 RMK A01 T03820152  RH  026%=      5-min Rain = 0
KMD1 121917Z 17005KT 38/15 A2998 RMK A01 T03800150  RH  026%=      5-min Rain = 0
KMD1 121918Z 15008G13KT 38/15 A2998 RMK A01 T03790154  RH  026%=      5-min Rain = 0
KMD1 121919Z 13010KT 39/15 A2998 RMK A01 T03850151  RH  025%=      5-min Rain = 0
KMD1 121920Z 14009KT 39/15 A2998 RMK A01 T03860149  RH  025%=      5-min Rain = 0
KMD1 121921Z 15007KT 39/15 A2998 RMK A01 T03880149  RH  024%=      5-min Rain = 0
KMD1 121922Z 17008KT 39/15 A2998 RMK A01 T03870149  RH  025%=      5-min Rain = 0
KMD1 121923Z 17010KT 39/15 A2998 RMK A01 T03850153  RH  025%=      5-min Rain = 0
KMD1 121924Z 16007KT 39/15 A2998 RMK A01 T03850151  RH  025%=      5-min Rain = 0
KMD1 121925Z 17005KT 39/15 A2997 RMK A01 T03850151  RH  025%=      5-min Rain = 0
KMD1 121926Z 15006KT 38/15 A2997 RMK A01 T03840153  RH  026%=      5-min Rain = 0
KMD1 121927Z 17009KT 39/15 A2997 RMK A01 T03870152  RH  025%=      5-min Rain = 0
KMD1 121928Z 15011KT 39/15 A2997 RMK A01 T03890152  RH  025%=      5-min Rain = 0
KMD1 121929Z 15010KT 39/15 A2997 RMK A01 T03880152  RH  025%=      5-min Rain = 0
KMD1 121930Z 15009KT 39/15 A2997 RMK A01 T03870153  RH  025%=      5-min Rain = 0
KMD1 121931Z 15008KT 39/15 A2997 RMK A01 T03860152  RH  025%=      5-min Rain = 0
KMD1 121932Z 14008KT 39/16 A2997 RMK A01 T03850155  RH  026%=      5-min Rain = 0
KMD1 121933Z 13012KT 39/16 A2997 RMK A01 T03850155  RH  026%=      5-min Rain = 0
KMD1 121934Z 14012KT 39/16 A2997 RMK A01 T03850156  RH  026%=      5-min Rain = 0
KMD1 121935Z 13010KT 39/16 A2997 RMK A01 T03860156  RH  026%=      5-min Rain = 0
KMD1 121936Z 15009KT 39/16 A2997 RMK A01 T03860157  RH  026%=      5-min Rain = 0
KMD1 121937Z 17008KT 39/16 A2997 RMK A01 T03870155  RH  026%=      5-min Rain = 0
KMD1 121938Z 14006KT 39/16 A2997 RMK A01 T03850155  RH  026%=      5-min Rain = 0
KMD1 121939Z 17007KT 38/16 A2997 RMK A01 T03840157  RH  026%=      5-min Rain = 0
KMD1 121940Z 18010KT 39/16 A2997 RMK A01 T03880158  RH  026%=      5-min Rain = 0
KMD1 121941Z 17007KT 39/16 A2997 RMK A01 T03880157  RH  026%=      5-min Rain = 0
KMD1 121942Z 20006KT 39/16 A2996 RMK A01 T03860157  RH  026%=      5-min Rain = 0
KMD1 121943Z 15007KT 39/16 A2996 RMK A01 T03860157  RH  026%=      5-min Rain = 0
KMD1 121944Z 14009KT 39/16 A2996 RMK A01 T03860155  RH  026%=      5-min Rain = 0
KMD1 121945Z 14012KT 39/16 A2996 RMK A01 T03870157  RH  026%=      5-min Rain = 0
KMD1 121946Z 15011KT 39/16 A2996 RMK A01 T03870157  RH  026%=      5-min Rain = 0
KMD1 121947Z 14009KT 39/16 A2996 RMK A01 T03880156  RH  026%=      5-min Rain = 0
KMD1 121948Z 14008KT 39/16 A2996 RMK A01 T03860155  RH  026%=      5-min Rain = 0
KMD1 121949Z 16008KT 39/16 A2996 RMK A01 T03890158  RH  026%=      5-min Rain = 0
KMD1 121950Z 15007KT 39/16 A2996 RMK A01 T03910155  RH  025%=      5-min Rain = 0
KMD1 121951Z 17007KT 39/16 A2996 RMK A01 T03900157  RH  025%=      5-min Rain = 0
KMD1 121952Z 16008KT 39/16 A2996 RMK A01 T03900157  RH  025%=      5-min Rain = 0
KMD1 121953Z 16008KT 39/16 A2996 RMK A01 T03910156  RH  025%=      5-min Rain = 0
KMD1 121954Z 18006KT 39/16 A2996 RMK A01 T03900155  RH  025%=      5-min Rain = 0
KMD1 121955Z 20005KT 39/16 A2996 RMK A01 T03910156  RH  025%=      5-min Rain = 0
KMD1 121956Z 21005KT 39/15 A2996 RMK A01 T03920154  RH  025%=      5-min Rain = 0
KMD1 121957Z 20008KT 39/15 A2996 RMK A01 T03920153  RH  025%=      5-min Rain = 0
KMD1 121958Z 19007KT 39/15 A2996 RMK A01 T03920154  RH  025%=      5-min Rain = 0
KMD1 121959Z 20009KT 39/15 A2995 RMK A01 T03910153  RH  025%=      5-min Rain = 0
KMD1 122000Z 20007KT 39/15 A2995 RMK A01 T03890153  RH  025%=      5-min Rain = 0
KMD1 122001Z 21006KT 39/15 A2995 RMK A01 T03920152  RH  024%=      5-min Rain = 0
KMD1 122002Z 22004KT 39/15 A2995 RMK A01 T03920152  RH  024%=      5-min Rain = 0
KMD1 122003Z 23009KT 39/15 A2995 RMK A01 T03910154  RH  025%=      5-min Rain = 0
KMD1 122004Z 23010KT 39/16 A2995 RMK A01 T03900158  RH  026%=      5-min Rain = 0
KMD1 122005Z 23008KT 39/15 A2995 RMK A01 T03910154  RH  025%=      5-min Rain = 0
KMD1 122006Z 24007KT 39/16 A2995 RMK A01 T03900155  RH  025%=      5-min Rain = 0
KMD1 122007Z 25008KT 39/16 A2995 RMK A01 T03900155  RH  025%=      5-min Rain = 0
KMD1 122008Z 23008KT 39/16 A2995 RMK A01 T03900155  RH  025%=      5-min Rain = 0
KMD1 122009Z 25007KT 39/15 A2995 RMK A01 T03900153  RH  025%=      5-min Rain = 0
KMD1 122010Z 24009KT 39/15 A2995 RMK A01 T03910153  RH  025%=      5-min Rain = 0
KMD1 122011Z 25009G14KT 39/16 A2995 RMK A01 T03910157  RH  025%=      5-min Rain = 0
KMD1 122012Z 25010G15KT 39/16 A2995 RMK A01 T03890161  RH  026%=      5-min Rain = 0
KMD1 122013Z 24007KT 39/16 A2995 RMK A01 T03890156  RH  025%=      5-min Rain = 0
KMD1 122014Z 24005KT 39/16 A2995 RMK A01 T03880155  RH  025%=      5-min Rain = 0
KMD1 122015Z 24007KT 39/16 A2995 RMK A01 T03900160  RH  026%=      5-min Rain = 0
KMD1 122016Z 22009KT 39/16 A2995 RMK A01 T03920159  RH  025%=      5-min Rain = 0
KMD1 122017Z 20007KT 39/16 A2995 RMK A01 T03920155  RH  025%=      5-min Rain = 0
KMD1 122018Z 20008KT 39/16 A2995 RMK A01 T03900156  RH  025%=      5-min Rain = 0
KMD1 122019Z 21007KT 39/16 A2995 RMK A01 T03880158  RH  026%=      5-min Rain = 0
KMD1 122020Z 21003KT 39/16 A2995 RMK A01 T03870160  RH  026%=      5-min Rain = 0
KMD1 122021Z 22004KT 39/16 A2995 RMK A01 T03870161  RH  027%=      5-min Rain = 0
KMD1 122022Z 22006KT 39/16 A2994 RMK A01 T03900160  RH  026%=      5-min Rain = 0
KMD1 122023Z 18005KT 39/16 A2994 RMK A01 T03880162  RH  027%=      5-min Rain = 0
KMD1 122024Z 15004KT 39/16 A2994 RMK A01 T03880160  RH  026%=      5-min Rain = 0
KMD1 122025Z 13000KT 39/16 A2994 RMK A01 T03880158  RH  026%=      5-min Rain = 0
KMD1 122026Z 19005KT 39/16 A2994 RMK A01 T03880159  RH  026%=      5-min Rain = 0
KMD1 122027Z 19008KT 39/16 A2994 RMK A01 T03900162  RH  026%=      5-min Rain = 0
KMD1 122028Z 23010KT 39/16 A2994 RMK A01 T03910163  RH  026%=      5-min Rain = 0
KMD1 122029Z 24009KT 39/16 A2994 RMK A01 T03910161  RH  026%=      5-min Rain = 0
KMD1 122030Z 25008KT 39/16 A2994 RMK A01 T03920161  RH  026%=      5-min Rain = 0
KMD1 122031Z 25008KT 39/16 A2994 RMK A01 T03930159  RH  026%=      5-min Rain = 0
KMD1 122032Z 24007KT 39/16 A2994 RMK A01 T03930160  RH  026%=      5-min Rain = 0
KMD1 122033Z 22004KT 39/16 A2994 RMK A01 T03930160  RH  026%=      5-min Rain = 0
KMD1 122034Z 21006KT 40/16 A2994 RMK A01 T03960161  RH  025%=      5-min Rain = 0
KMD1 122035Z 19006KT 40/16 A2994 RMK A01 T03960163  RH  026%=      5-min Rain = 0
KMD1 122036Z 19007KT 40/16 A2994 RMK A01 T03970158  RH  025%=      5-min Rain = 0
KMD1 122037Z 18009KT 39/15 A2994 RMK A01 T03940154  RH  024%=      5-min Rain = 0
KMD1 122038Z 17008KT 39/15 A2994 RMK A01 T03930153  RH  024%=      5-min Rain = 0
KMD1 122039Z 18007KT 40/15 A2994 RMK A01 T03950151  RH  024%=      5-min Rain = 0
KMD1 122040Z 18008G13KT 40/15 A2994 RMK A01 T03950152  RH  024%=      5-min Rain = 0
KMD1 122041Z 19008KT 40/15 A2993 RMK A01 T03960148  RH  023%=      5-min Rain = 0
KMD1 122042Z 23007KT 40/15 A2994 RMK A01 T03970151  RH  024%=      5-min Rain = 0
KMD1 122043Z 21007KT 40/15 A2994 RMK A01 T03970147  RH  023%=      5-min Rain = 0
KMD1 122044Z 20008G13KT 39/15 A2994 RMK A01 T03940147  RH  023%=      5-min Rain = 0
KMD1 122045Z 22009KT 39/15 A2994 RMK A01 T03940148  RH  024%=      5-min Rain = 0
KMD1 122046Z 23008KT 40/15 A2994 RMK A01 T03960147  RH  023%=      5-min Rain = 0
KMD1 122047Z 24009KT 40/15 A2994 RMK A01 T03960145  RH  023%=      5-min Rain = 0
KMD1 122048Z 25007KT 40/14 A2994 RMK A01 T03950144  RH  023%=      5-min Rain = 0
KMD1 122049Z 24007KT 40/14 A2994 RMK A01 T03950143  RH  023%=      5-min Rain = 0
KMD1 122050Z 21007KT 40/15 A2994 RMK A01 T03970148  RH  023%=      5-min Rain = 0
KMD1 122051Z 20008KT 40/15 A2994 RMK A01 T04010151  RH  023%=      5-min Rain = 0
KMD1 122052Z 20004KT 40/15 A2994 RMK A01 T04020146  RH  022%=      5-min Rain = 0
KMD1 122053Z 20006KT 40/15 A2993 RMK A01 T03980146  RH  023%=      5-min Rain = 0
KMD1 122054Z 19004KT 40/15 A2993 RMK A01 T03960146  RH  023%=      5-min Rain = 0
KMD1 122055Z 16003KT 40/14 A2993 RMK A01 T03950144  RH  023%=      5-min Rain = 0
KMD1 122056Z 17005KT 40/15 A2993 RMK A01 T03960148  RH  023%=      5-min Rain = 0
KMD1 122057Z 18006KT 40/15 A2993 RMK A01 T03980147  RH  023%=      5-min Rain = 0
KMD1 122058Z 19007KT 40/15 A2993 RMK A01 T03980147  RH  023%=      5-min Rain = 0
KMD1 122059Z 21004KT 40/15 A2993 RMK A01 T03970146  RH  023%=      5-min Rain = 0
KMD1 122100Z 18003KT 40/14 A2993 RMK A01 T03960144  RH  023%=      5-min Rain = 0
KMD1 122101Z 12003KT 40/15 A2993 RMK A01 T03950147  RH  023%=      5-min Rain = 0
KMD1 122102Z 16003KT 40/15 A2993 RMK A01 T03950147  RH  023%=      5-min Rain = 0
KMD1 122103Z 19007KT 40/15 A2993 RMK A01 T03980150  RH  023%=      5-min Rain = 0
KMD1 122104Z 19008KT 40/15 A2993 RMK A01 T03990147  RH  023%=      5-min Rain = 0
KMD1 122105Z 18009KT 40/15 A2993 RMK A01 T04000145  RH  022%=      5-min Rain = 0
KMD1 122106Z 19007KT 40/15 A2993 RMK A01 T03990145  RH  023%=      5-min Rain = 0
KMD1 122107Z 20007KT 40/14 A2993 RMK A01 T04000142  RH  022%=      5-min Rain = 0
KMD1 122108Z 22002KT 40/14 A2993 RMK A01 T03980144  RH  022%=      5-min Rain = 0
KMD1 122109Z 22003G9KT 40/14 A2993 RMK A01 T03960143  RH  023%=      5-min Rain = 0
KMD1 122110Z 23006KT 40/15 A2993 RMK A01 T03970145  RH  023%=      5-min Rain = 0
KMD1 122111Z 23004KT 40/14 A2993 RMK A01 T03970140  RH  022%=      5-min Rain = 0
KMD1 122112Z 24002KT 40/14 A2993 RMK A01 T03950142  RH  023%=      5-min Rain = 0
KMD1 122113Z 26003KT 40/14 A2992 RMK A01 T03970142  RH  022%=      5-min Rain = 0
KMD1 122114Z 26004KT 40/14 A2992 RMK A01 T04000137  RH  021%=      5-min Rain = 0
KMD1 122115Z 26002KT 40/14 A2992 RMK A01 T04010141  RH  022%=      5-min Rain = 0
KMD1 122116Z 22006KT 41/14 A2992 RMK A01 T04060144  RH  022%=      5-min Rain = 0
KMD1 122117Z 24010KT 41/14 A2992 RMK A01 T04070141  RH  021%=      5-min Rain = 0
KMD1 122118Z 24007KT 40/14 A2992 RMK A01 T04030139  RH  021%=      5-min Rain = 0
KMD1 122119Z 20007KT 40/14 A2992 RMK A01 T04010143  RH  022%=      5-min Rain = 0
KMD1 122120Z 19008KT 40/15 A2992 RMK A01 T04030145  RH  022%=      5-min Rain = 0
KMD1 122121Z 18007KT 40/15 A2992 RMK A01 T04020145  RH  022%=      5-min Rain = 0
KMD1 122122Z 16006KT 40/14 A2992 RMK A01 T04000143  RH  022%=      5-min Rain = 0
KMD1 122123Z 15006KT 40/14 A2992 RMK A01 T04000142  RH  022%=      5-min Rain = 0
KMD1 122124Z 16008KT 40/14 A2992 RMK A01 T04000143  RH  022%=      5-min Rain = 0
KMD1 122125Z 17006KT 40/14 A2992 RMK A01 T04000142  RH  022%=      5-min Rain = 0
KMD1 122126Z 18004KT 40/14 A2992 RMK A01 T03990141  RH  022%=      5-min Rain = 0
KMD1 122127Z 18003KT 40/14 A2992 RMK A01 T03990143  RH  022%=      5-min Rain = 0
KMD1 122128Z 19006KT 40/14 A2992 RMK A01 T04000144  RH  022%=      5-min Rain = 0
KMD1 122129Z 18011KT 40/13 A2992 RMK A01 T04020134  RH  021%=      5-min Rain = 0
KMD1 122130Z 19009KT 40/13 A2992 RMK A01 T04030133  RH  020%=      5-min Rain = 0
KMD1 122131Z 20009KT 41/13 A2992 RMK A01 T04050134  RH  020%=      5-min Rain = 0
KMD1 122132Z 19006G11KT 41/13 A2992 RMK A01 T04060134  RH  020%=      5-min Rain = 0
KMD1 122133Z 22012KT 41/13 A2992 RMK A01 T04050130  RH  020%=      5-min Rain = 0
KMD1 122134Z 22008KT 40/13 A2992 RMK A01 T04030130  RH  020%=      5-min Rain = 0
KMD1 122135Z 22005KT 40/13 A2992 RMK A01 T04030130  RH  020%=      5-min Rain = 0
KMD1 122136Z 22007KT 41/13 A2992 RMK A01 T04050130  RH  020%=      5-min Rain = 0
KMD1 122137Z 24009KT 41/13 A2992 RMK A01 T04060132  RH  020%=      5-min Rain = 0
KMD1 122138Z 24008KT 41/13 A2992 RMK A01 T04060129  RH  020%=      5-min Rain = 0
KMD1 122139Z 24009KT 40/13 A2992 RMK A01 T04040130  RH  020%=      5-min Rain = 0
KMD1 122140Z 25008KT 40/13 A2992 RMK A01 T04030126  RH  019%=      5-min Rain = 0
KMD1 122141Z 26007KT 40/13 A2991 RMK A01 T04020132  RH  020%=      5-min Rain = 0
KMD1 122142Z 24008KT 40/13 A2991 RMK A01 T04020134  RH  021%=      5-min Rain = 0
KMD1 122143Z 23007KT 40/14 A2991 RMK A01 T04020137  RH  021%=      5-min Rain = 0
KMD1 122144Z 23009KT 40/14 A2991 RMK A01 T04030138  RH  021%=      5-min Rain = 0
KMD1 122145Z 24008KT 41/13 A2991 RMK A01 T04070131  RH  020%=      5-min Rain = 0
KMD1 122146Z 26007KT 41/13 A2991 RMK A01 T04080128  RH  019%=      5-min Rain = 0
KMD1 122147Z 25008KT 41/13 A2991 RMK A01 T04060125  RH  019%=      5-min Rain = 0
KMD1 122148Z 25005KT 40/13 A2991 RMK A01 T04030125  RH  019%=      5-min Rain = 0
KMD1 122149Z 20005KT 40/13 A2991 RMK A01 T04020130  RH  020%=      5-min Rain = 0
KMD1 122150Z 18007KT 40/13 A2991 RMK A01 T04040127  RH  020%=      5-min Rain = 0
KMD1 122151Z 18006KT 40/13 A2991 RMK A01 T04040130  RH  020%=      5-min Rain = 0
KMD1 122152Z 18006KT 40/13 A2991 RMK A01 T04020131  RH  020%=      5-min Rain = 0
KMD1 122153Z 17003KT 40/13 A2991 RMK A01 T04020128  RH  020%=      5-min Rain = 0
KMD1 122154Z 22003KT 40/13 A2991 RMK A01 T04020131  RH  020%=      5-min Rain = 0
KMD1 122155Z 23003KT 40/13 A2991 RMK A01 T04030127  RH  020%=      5-min Rain = 0
KMD1 122156Z 20004KT 40/13 A2991 RMK A01 T04020129  RH  020%=      5-min Rain = 0
KMD1 122157Z 21006KT 40/13 A2991 RMK A01 T04030134  RH  020%=      5-min Rain = 0
KMD1 122158Z 15004KT 40/14 A2991 RMK A01 T04040135  RH  020%=      5-min Rain = 0
KMD1 122159Z 21005KT 41/14 A2991 RMK A01 T04070136  RH  020%=      5-min Rain = 0
KMD1 122200Z 20004KT 41/14 A2991 RMK A01 T04080136  RH  020%=      5-min Rain = 0
KMD1 122201Z 20004KT 41/14 A2991 RMK A01 T04090139  RH  021%=      5-min Rain = 0
KMD1 122202Z 18004KT 41/14 A2991 RMK A01 T04110136  RH  020%=      5-min Rain = 0
KMD1 122203Z 16004KT 41/14 A2991 RMK A01 T04110137  RH  020%=      5-min Rain = 0
KMD1 122204Z 15007KT 41/14 A2991 RMK A01 T04120135  RH  020%=      5-min Rain = 0
KMD1 122205Z 15008KT 41/14 A2991 RMK A01 T04110136  RH  020%=      5-min Rain = 0
KMD1 122206Z 15009KT 41/14 A2991 RMK A01 T04090135  RH  020%=      5-min Rain = 0
KMD1 122207Z 15008KT 41/13 A2991 RMK A01 T04060134  RH  020%=      5-min Rain = 0
KMD1 122208Z 14005KT 40/14 A2991 RMK A01 T04040135  RH  021%=      5-min Rain = 0
KMD1 122209Z 17006KT 41/14 A2991 RMK A01 T04050135  RH  020%=      5-min Rain = 0
KMD1 122210Z 21007KT 41/13 A2991 RMK A01 T04070132  RH  020%=      5-min Rain = 0
KMD1 122211Z 21007KT 41/13 A2991 RMK A01 T04080130  RH  019%=      5-min Rain = 0
KMD1 122212Z 21005KT 41/13 A2991 RMK A01 T04070125  RH  019%=      5-min Rain = 0
KMD1 122213Z 22004KT 41/13 A2991 RMK A01 T04060125  RH  019%=      5-min Rain = 0
KMD1 122214Z 21005KT 41/12 A2991 RMK A01 T04050124  RH  019%=      5-min Rain = 0
KMD1 122215Z 22008KT 41/13 A2991 RMK A01 T04050128  RH  019%=      5-min Rain = 0
KMD1 122216Z 18008KT 41/13 A299 RMK A01 T04050132  RH  020%=      5-min Rain = 0
KMD1 122217Z 19009KT 41/13 A299 RMK A01 T04070132  RH  020%=      5-min Rain = 0
KMD1 122218Z 20007KT 41/13 A299 RMK A01 T04070131  RH  020%=      5-min Rain = 0
KMD1 122219Z 20009KT 41/13 A299 RMK A01 T04050130  RH  020%=      5-min Rain = 0
KMD1 122220Z 21006KT 40/13 A299 RMK A01 T04040129  RH  020%=      5-min Rain = 0
KMD1 122221Z 22006G11KT 40/13 A299 RMK A01 T04020130  RH  020%=      5-min Rain = 0
KMD1 122222Z 23010KT 40/13 A299 RMK A01 T04020130  RH  020%=      5-min Rain = 0
KMD1 122223Z 24010KT 40/13 A299 RMK A01 T04030129  RH  020%=      5-min Rain = 0
KMD1 122224Z 25009KT 40/13 A299 RMK A01 T04040131  RH  020%=      5-min Rain = 0
KMD1 122225Z 25007KT 41/13 A299 RMK A01 T04050127  RH  019%=      5-min Rain = 0
KMD1 122226Z 24005KT 41/13 A299 RMK A01 T04050129  RH  020%=      5-min Rain = 0
KMD1 122227Z 22005KT 41/13 A299 RMK A01 T04050129  RH  020%=      5-min Rain = 0
KMD1 122228Z 21007KT 41/13 A299 RMK A01 T04060131  RH  020%=      5-min Rain = 0
KMD1 122229Z 21009KT 41/13 A299 RMK A01 T04090130  RH  019%=      5-min Rain = 0
KMD1 122230Z 20008KT 41/13 A299 RMK A01 T04090132  RH  020%=      5-min Rain = 0
KMD1 122231Z 21006KT 41/13 A299 RMK A01 T04090128  RH  019%=      5-min Rain = 0
KMD1 122232Z 20005KT 41/13 A299 RMK A01 T04070129  RH  019%=      5-min Rain = 0
KMD1 122233Z 20008KT 41/13 A299 RMK A01 T04080127  RH  019%=      5-min Rain = 0
KMD1 122234Z 24004KT 41/12 A299 RMK A01 T04080123  RH  019%=      5-min Rain = 0
KMD1 122235Z 22002KT 41/12 A299 RMK A01 T04060123  RH  019%=      5-min Rain = 0
KMD1 122236Z 22003KT 41/13 A299 RMK A01 T04060126  RH  019%=      5-min Rain = 0
KMD1 122237Z 23006KT 41/13 A299 RMK A01 T04070129  RH  019%=      5-min Rain = 0
KMD1 122238Z 24009KT 41/13 A299 RMK A01 T04110125  RH  019%=      5-min Rain = 0
KMD1 122239Z 22007KT 41/12 A299 RMK A01 T04090120  RH  018%=      5-min Rain = 0
KMD1 122240Z 23007KT 41/12 A299 RMK A01 T04060121  RH  019%=      5-min Rain = 0
KMD1 122241Z 24004KT 41/12 A299 RMK A01 T04070123  RH  019%=      5-min Rain = 0
KMD1 122242Z 25005KT 41/12 A299 RMK A01 T04080124  RH  019%=      5-min Rain = 0
KMD1 122243Z 23005KT 41/12 A299 RMK A01 T04090124  RH  019%=      5-min Rain = 0
KMD1 122244Z 25008KT 41/12 A299 RMK A01 T04090119  RH  018%=      5-min Rain = 0
KMD1 122245Z 26007KT 41/12 A299 RMK A01 T04070119  RH  018%=      5-min Rain = 0
KMD1 122246Z 25006KT 41/11 A299 RMK A01 T04080112  RH  017%=      5-min Rain = 0
KMD1 122247Z 25005KT 41/11 A299 RMK A01 T04080110  RH  017%=      5-min Rain = 0
KMD1 122248Z 26006KT 41/11 A299 RMK A01 T04070114  RH  018%=      5-min Rain = 0
KMD1 122249Z 27005KT 41/12 A2989 RMK A01 T04080116  RH  018%=      5-min Rain = 0
KMD1 122250Z 26007KT 41/11 A2989 RMK A01 T04080114  RH  017%=      5-min Rain = 0
KMD1 122251Z 26005KT 41/11 A2989 RMK A01 T04070109  RH  017%=      5-min Rain = 0
KMD1 122252Z 24006KT 41/11 A2989 RMK A01 T04060111  RH  017%=      5-min Rain = 0
KMD1 122253Z 22005KT 41/11 A2989 RMK A01 T04070108  RH  017%=      5-min Rain = 0
KMD1 122254Z 22004KT 41/11 A2989 RMK A01 T04070106  RH  017%=      5-min Rain = 0
KMD1 122255Z 24004KT 41/11 A2989 RMK A01 T04070105  RH  017%=      5-min Rain = 0
KMD1 122256Z 24004KT 41/11 A2989 RMK A01 T04070105  RH  017%=      5-min Rain = 0
KMD1 122257Z 24005KT 41/11 A2989 RMK A01 T04070107  RH  017%=      5-min Rain = 0
KMD1 122258Z 22003KT 41/11 A2989 RMK A01 T04080112  RH  017%=      5-min Rain = 0
KMD1 122259Z 27004KT 41/11 A2989 RMK A01 T04100111  RH  017%=      5-min Rain = 0
KMD1 122300Z 26004KT 41/10 A2989 RMK A01 T04100102  RH  016%=      5-min Rain = 0
KMD1 122301Z 22004KT 41/11 A2989 RMK A01 T04080107  RH  017%=      5-min Rain = 0
KMD1 122302Z 20006KT 41/11 A2989 RMK A01 T04080110  RH  017%=      5-min Rain = 0
KMD1 122303Z 19005KT 41/11 A2989 RMK A01 T04090108  RH  017%=      5-min Rain = 0
KMD1 122304Z 18005KT 41/11 A2989 RMK A01 T04090107  RH  017%=      5-min Rain = 0
KMD1 122305Z 19005KT 41/11 A2989 RMK A01 T04080107  RH  017%=      5-min Rain = 0
KMD1 122306Z 20004KT 41/11 A2989 RMK A01 T04070107  RH  017%=      5-min Rain = 0
KMD1 122307Z 24003KT 41/11 A2989 RMK A01 T04070107  RH  017%=      5-min Rain = 0
KMD1 122308Z 24004KT 41/11 A2989 RMK A01 T04070108  RH  017%=      5-min Rain = 0
KMD1 122309Z 23005KT 41/11 A2989 RMK A01 T04070109  RH  017%=      5-min Rain = 0
KMD1 122310Z 23007KT 41/12 A2989 RMK A01 T04070115  RH  018%=      5-min Rain = 0
KMD1 122311Z 22007KT 41/11 A2989 RMK A01 T04070114  RH  018%=      5-min Rain = 0
KMD1 122312Z 24006KT 41/12 A2989 RMK A01 T04070119  RH  018%=      5-min Rain = 0
KMD1 122313Z 23006KT 41/12 A2989 RMK A01 T04090117  RH  018%=      5-min Rain = 0
KMD1 122314Z 23005KT 41/12 A2989 RMK A01 T04100119  RH  018%=      5-min Rain = 0
KMD1 122315Z 22006KT 41/12 A2989 RMK A01 T04100115  RH  017%=      5-min Rain = 0
KMD1 122316Z 24006KT 41/11 A2989 RMK A01 T04100114  RH  017%=      5-min Rain = 0
KMD1 122317Z 24005KT 41/11 A2989 RMK A01 T04080114  RH  017%=      5-min Rain = 0
KMD1 122318Z 24004KT 41/11 A2989 RMK A01 T04070114  RH  018%=      5-min Rain = 0
KMD1 122319Z 24003KT 41/12 A2989 RMK A01 T04060118  RH  018%=      5-min Rain = 0
KMD1 122320Z 23004KT 41/12 A2989 RMK A01 T04080118  RH  018%=      5-min Rain = 0
KMD1 122321Z 24005KT 41/11 A2989 RMK A01 T04090114  RH  017%=      5-min Rain = 0
KMD1 122322Z 24003KT 41/11 A2989 RMK A01 T04090113  RH  017%=      5-min Rain = 0
KMD1 122323Z 23004KT 41/11 A2989 RMK A01 T04080113  RH  017%=      5-min Rain = 0
KMD1 122324Z 21003KT 41/11 A2989 RMK A01 T04070112  RH  017%=      5-min Rain = 0
KMD1 122325Z 25002KT 41/11 A2989 RMK A01 T04070110  RH  017%=      5-min Rain = 0
KMD1 122326Z 25002KT 41/11 A2989 RMK A01 T04080112  RH  017%=      5-min Rain = 0
KMD1 122327Z 29004KT 41/11 A2989 RMK A01 T04090111  RH  017%=      5-min Rain = 0
KMD1 122328Z 31004KT 41/11 A2989 RMK A01 T04100110  RH  017%=      5-min Rain = 0
KMD1 122329Z 30005KT 41/11 A2989 RMK A01 T04110112  RH  017%=      5-min Rain = 0
KMD1 122330Z 27003KT 41/12 A2989 RMK A01 T04120115  RH  017%=      5-min Rain = 0
KMD1 122331Z 28002KT 41/11 A2989 RMK A01 T04120112  RH  017%=      5-min Rain = 0
KMD1 122332Z 28003KT 41/11 A2989 RMK A01 T04120111  RH  017%=      5-min Rain = 0
KMD1 122333Z 26003KT 41/11 A2989 RMK A01 T04120111  RH  017%=      5-min Rain = 0
KMD1 122334Z 23002KT 41/11 A2989 RMK A01 T04100112  RH  017%=      5-min Rain = 0
KMD1 122335Z 24004KT 41/11 A2989 RMK A01 T04100111  RH  017%=      5-min Rain = 0
KMD1 122336Z 20005KT 41/11 A2989 RMK A01 T04100114  RH  017%=      5-min Rain = 0
KMD1 122337Z 20006KT 41/12 A2989 RMK A01 T04090115  RH  018%=      5-min Rain = 0
KMD1 122338Z 19007KT 41/12 A2989 RMK A01 T04080118  RH  018%=      5-min Rain = 0
KMD1 122339Z 19007KT 41/12 A2989 RMK A01 T04070116  RH  018%=      5-min Rain = 0
KMD1 122340Z 18007KT 41/11 A2989 RMK A01 T04070113  RH  017%=      5-min Rain = 0
KMD1 122341Z 20008KT 41/11 A2989 RMK A01 T04060111  RH  017%=      5-min Rain = 0
KMD1 122342Z 20007KT 40/11 A2989 RMK A01 T04040113  RH  018%=      5-min Rain = 0
KMD1 122343Z 20007KT 40/11 A2989 RMK A01 T04030110  RH  017%=      5-min Rain = 0
KMD1 122344Z 23004KT 40/11 A2989 RMK A01 T04020112  RH  018%=      5-min Rain = 0
KMD1 122345Z 23004KT 40/11 A2989 RMK A01 T04030112  RH  018%=      5-min Rain = 0
KMD1 122346Z 25006KT 41/11 A2989 RMK A01 T04050114  RH  018%=      5-min Rain = 0
KMD1 122347Z 24007KT 41/11 A2989 RMK A01 T04050110  RH  017%=      5-min Rain = 0
KMD1 122348Z 24006KT 40/11 A2989 RMK A01 T04040111  RH  017%=      5-min Rain = 0
KMD1 122349Z 25005KT 40/11 A2989 RMK A01 T04040112  RH  018%=      5-min Rain = 0
KMD1 122350Z 25008KT 40/11 A2989 RMK A01 T04040113  RH  018%=      5-min Rain = 0
KMD1 122351Z 24005KT 40/11 A2989 RMK A01 T04030114  RH  018%=      5-min Rain = 0
KMD1 122352Z 25006KT 40/11 A2989 RMK A01 T04030113  RH  018%=      5-min Rain = 0
KMD1 122353Z 25007KT 40/11 A2989 RMK A01 T04030114  RH  018%=      5-min Rain = 0
KMD1 122354Z 26004KT 40/11 A2989 RMK A01 T04030112  RH  018%=      5-min Rain = 0
KMD1 122355Z 25003KT 40/11 A2989 RMK A01 T04030112  RH  018%=      5-min Rain = 0
KMD1 122356Z 23002KT 40/12 A2989 RMK A01 T04040115  RH  018%=      5-min Rain = 0
KMD1 122357Z 21003KT 41/12 A2989 RMK A01 T04050117  RH  018%=      5-min Rain = 0
KMD1 122358Z 18004KT 41/11 A2989 RMK A01 T04060113  RH  018%=      5-min Rain = 0
KMD1 122359Z 19006KT 41/11 A2989 RMK A01 T04060111  RH  017%=      5-min Rain = 0
KMD1 130000Z 19007KT 40/11 A2989 RMK A01 T04040106  RH  017%=      5-min Rain = 0
KMD1 130001Z 19007KT 40/11 A2989 RMK A01 T04020107  RH  017%=      5-min Rain = 0
KMD1 130002Z 20005KT 40/11 A2989 RMK A01 T04020105  RH  017%=      5-min Rain = 0
KMD1 130003Z 19005KT 40/11 A2989 RMK A01 T04010107  RH  017%=      5-min Rain = 0
KMD1 130004Z 17006KT 40/11 A2989 RMK A01 T04010106  RH  017%=      5-min Rain = 0
KMD1 130005Z 17005KT 40/11 A2989 RMK A01 T04010108  RH  017%=      5-min Rain = 0
KMD1 130006Z 15006KT 40/11 A2989 RMK A01 T04010110  RH  018%=      5-min Rain = 0
KMD1 130007Z 17006KT 40/11 A2989 RMK A01 T04020108  RH  017%=      5-min Rain = 0
KMD1 130008Z 19007KT 40/11 A2989 RMK A01 T04030111  RH  018%=      5-min Rain = 0
KMD1 130009Z 18008KT 40/11 A2989 RMK A01 T04030106  RH  017%=      5-min Rain = 0
KMD1 130010Z 19007KT 40/11 A2989 RMK A01 T04020105  RH  017%=      5-min Rain = 0
KMD1 130011Z 21007KT 40/11 A2989 RMK A01 T04010105  RH  017%=      5-min Rain = 0
KMD1 130012Z 23006KT 40/10 A2989 RMK A01 T04010104  RH  017%=      5-min Rain = 0
KMD1 130013Z 24007KT 40/11 A2989 RMK A01 T04010105  RH  017%=      5-min Rain = 0
KMD1 130014Z 21005KT 40/11 A2989 RMK A01 T04010106  RH  017%=      5-min Rain = 0
KMD1 130015Z 20006KT 40/11 A2989 RMK A01 T04020107  RH  017%=      5-min Rain = 0
KMD1 130016Z 22006KT 40/11 A2989 RMK A01 T04010107  RH  017%=      5-min Rain = 0
KMD1 130017Z 21005KT 40/11 A2989 RMK A01 T04010105  RH  017%=      5-min Rain = 0
KMD1 130018Z 21003KT 40/11 A2989 RMK A01 T04010107  RH  017%=      5-min Rain = 0
KMD1 130019Z 21003KT 40/11 A2989 RMK A01 T04010109  RH  018%=      5-min Rain = 0
KMD1 130020Z 20004KT 40/11 A2989 RMK A01 T04020106  RH  017%=      5-min Rain = 0
KMD1 130021Z 22004KT 40/11 A2989 RMK A01 T04010106  RH  017%=      5-min Rain = 0
KMD1 130022Z 20004KT 40/11 A2989 RMK A01 T04010109  RH  018%=      5-min Rain = 0
KMD1 130023Z 21005KT 40/11 A2989 RMK A01 T04010106  RH  017%=      5-min Rain = 0
KMD1 130024Z 20004KT 40/10 A2989 RMK A01 T04000104  RH  017%=      5-min Rain = 0
KMD1 130025Z 20004KT 40/11 A2989 RMK A01 T03990108  RH  018%=      5-min Rain = 0
KMD1 130026Z 20004KT 40/11 A2989 RMK A01 T03990106  RH  017%=      5-min Rain = 0
KMD1 130027Z 19003KT 40/11 A2989 RMK A01 T03990106  RH  017%=      5-min Rain = 0
KMD1 130028Z 19003KT 40/10 A2989 RMK A01 T03990103  RH  017%=      5-min Rain = 0
KMD1 130029Z 18003KT 40/11 A2989 RMK A01 T03990106  RH  017%=      5-min Rain = 0
KMD1 130030Z 18004KT 40/11 A2989 RMK A01 T03990107  RH  018%=      5-min Rain = 0
KMD1 130031Z 18005KT 40/11 A2989 RMK A01 T03990106  RH  017%=      5-min Rain = 0
KMD1 130032Z 18005KT 40/11 A2989 RMK A01 T03990105  RH  017%=      5-min Rain = 0
KMD1 130033Z 19005KT 40/11 A2989 RMK A01 T03990108  RH  018%=      5-min Rain = 0
KMD1 130034Z 18006KT 40/11 A2989 RMK A01 T03980106  RH  018%=      5-min Rain = 0
KMD1 130035Z 18005KT 40/11 A2989 RMK A01 T03970105  RH  017%=      5-min Rain = 0
KMD1 130036Z 17005KT 40/11 A2989 RMK A01 T03970109  RH  018%=      5-min Rain = 0
KMD1 130037Z 17005KT 40/11 A2989 RMK A01 T03970107  RH  018%=      5-min Rain = 0
KMD1 130038Z 17003KT 40/10 A2989 RMK A01 T03970100  RH  017%=      5-min Rain = 0
KMD1 130039Z 18003KT 40/10 A2989 RMK A01 T03970101  RH  017%=      5-min Rain = 0
KMD1 130040Z 18004KT 40/10 A2989 RMK A01 T03960100  RH  017%=      5-min Rain = 0
KMD1 130041Z 19004KT 40/10 A2989 RMK A01 T03970099  RH  017%=      5-min Rain = 0
KMD1 130042Z 19003KT 40/10 A2989 RMK A01 T03970102  RH  017%=      5-min Rain = 0
KMD1 130043Z 18003KT 40/11 A2989 RMK A01 T03960106  RH  018%=      5-min Rain = 0
KMD1 130044Z 20004KT 40/11 A2989 RMK A01 T03960108  RH  018%=      5-min Rain = 0
KMD1 130045Z 19004KT 40/11 A2989 RMK A01 T03960107  RH  018%=      5-min Rain = 0
KMD1 130046Z 19005KT 40/11 A2989 RMK A01 T03950107  RH  018%=      5-min Rain = 0
KMD1 130047Z 19004KT 39/10 A2989 RMK A01 T03940104  RH  018%=      5-min Rain = 0
KMD1 130048Z 19005KT 39/11 A2989 RMK A01 T03930105  RH  018%=      5-min Rain = 0
KMD1 130049Z 18005KT 39/11 A2989 RMK A01 T03920105  RH  018%=      5-min Rain = 0
KMD1 130050Z 19003KT 39/11 A2989 RMK A01 T03910105  RH  018%=      5-min Rain = 0
KMD1 130051Z 19003KT 39/11 A2989 RMK A01 T03920108  RH  018%=      5-min Rain = 0
KMD1 130052Z 19003KT 39/11 A2989 RMK A01 T03910106  RH  018%=      5-min Rain = 0
KMD1 130053Z 19003KT 39/11 A2989 RMK A01 T03910107  RH  018%=      5-min Rain = 0
KMD1 130054Z 19003KT 39/11 A2989 RMK A01 T03910108  RH  018%=      5-min Rain = 0
KMD1 130055Z 19003KT 39/11 A2989 RMK A01 T03900110  RH  019%=      5-min Rain = 0
KMD1 130056Z 18003KT 39/11 A2989 RMK A01 T03890110  RH  019%=      5-min Rain = 0
KMD1 130057Z 20004KT 39/11 A2989 RMK A01 T03900112  RH  019%=      5-min Rain = 0
KMD1 130058Z 19006KT 39/11 A2989 RMK A01 T03890108  RH  019%=      5-min Rain = 0
KMD1 130059Z 20006KT 39/11 A2989 RMK A01 T03880107  RH  019%=      5-min Rain = 0
KMD1 130100Z 19006KT 39/11 A2989 RMK A01 T03870106  RH  018%=      5-min Rain = 0
KMD1 130101Z 17004KT 39/11 A2989 RMK A01 T03860110  RH  019%=      5-min Rain = 0
KMD1 130102Z 17004KT 39/11 A2989 RMK A01 T03850113  RH  020%=      5-min Rain = 0
KMD1 130103Z 16004KT 38/12 A2989 RMK A01 T03830116  RH  020%=      5-min Rain = 0
KMD1 130104Z 17005KT 38/11 A2989 RMK A01 T03830114  RH  020%=      5-min Rain = 0
KMD1 130105Z 17006KT 38/11 A2989 RMK A01 T03820111  RH  020%=      5-min Rain = 0
KMD1 130106Z 17005KT 38/11 A2989 RMK A01 T03820109  RH  019%=      5-min Rain = 0
KMD1 130107Z 18004KT 38/11 A2989 RMK A01 T03810108  RH  019%=      5-min Rain = 0
KMD1 130108Z 18003KT 38/11 A2989 RMK A01 T03810111  RH  020%=      5-min Rain = 0
KMD1 130109Z 17004KT 38/11 A2989 RMK A01 T03810111  RH  020%=      5-min Rain = 0
KMD1 130110Z 18004KT 38/11 A2989 RMK A01 T03800113  RH  020%=      5-min Rain = 0
KMD1 130111Z 18004KT 38/11 A2989 RMK A01 T03790114  RH  020%=      5-min Rain = 0
KMD1 130112Z 19003KT 38/11 A2989 RMK A01 T03780113  RH  020%=      5-min Rain = 0
KMD1 130113Z 19003KT 38/11 A2989 RMK A01 T03770113  RH  020%=      5-min Rain = 0
KMD1 130114Z 19003KT 38/11 A2989 RMK A01 T03770112  RH  020%=      5-min Rain = 0
KMD1 130115Z 19004KT 38/11 A2989 RMK A01 T03770112  RH  020%=      5-min Rain = 0
KMD1 130116Z 18004KT 38/11 A2989 RMK A01 T03760112  RH  020%=      5-min Rain = 0
KMD1 130117Z 18004KT 38/11 A2989 RMK A01 T03760113  RH  021%=      5-min Rain = 0
KMD1 130118Z 18004KT 38/11 A2989 RMK A01 T03750114  RH  021%=      5-min Rain = 0
KMD1 130119Z 18003KT 37/12 A2989 RMK A01 T03740116  RH  021%=      5-min Rain = 0
KMD1 130120Z 18004KT 37/11 A2989 RMK A01 T03720114  RH  021%=      5-min Rain = 0
KMD1 130121Z 19004KT 37/11 A2989 RMK A01 T03720112  RH  021%=      5-min Rain = 0
KMD1 130122Z 19004KT 37/11 A2989 RMK A01 T03720112  RH  021%=      5-min Rain = 0
KMD1 130123Z 18004KT 37/11 A2989 RMK A01 T03710111  RH  021%=      5-min Rain = 0
KMD1 130124Z 18004KT 37/11 A2989 RMK A01 T03710112  RH  021%=      5-min Rain = 0
KMD1 130125Z 18004KT 37/11 A2989 RMK A01 T03710111  RH  021%=      5-min Rain = 0
KMD1 130126Z 18004KT 37/11 A2989 RMK A01 T03700111  RH  021%=      5-min Rain = 0
KMD1 130127Z 18004KT 37/11 A2989 RMK A01 T03700112  RH  021%=      5-min Rain = 0
KMD1 130128Z 18004KT 37/12 A2989 RMK A01 T03690115  RH  022%=      5-min Rain = 0
KMD1 130129Z 18004KT 37/12 A2989 RMK A01 T03680116  RH  022%=      5-min Rain = 0
KMD1 130130Z 17004KT 37/12 A2989 RMK A01 T03660117  RH  022%=      5-min Rain = 0
KMD1 130131Z 17004KT 37/12 A2989 RMK A01 T03650121  RH  023%=      5-min Rain = 0
KMD1 130132Z 17004KT 36/12 A2989 RMK A01 T03640123  RH  024%=      5-min Rain = 0
KMD1 130133Z 17004KT 36/12 A2989 RMK A01 T03620124  RH  024%=      5-min Rain = 0
KMD1 130134Z 17003KT 36/12 A2989 RMK A01 T03600124  RH  024%=      5-min Rain = 0
KMD1 130135Z 15003KT 36/12 A2989 RMK A01 T03590121  RH  024%=      5-min Rain = 0
KMD1 130136Z 14002KT 36/12 A2989 RMK A01 T03570124  RH  025%=      5-min Rain = 0
KMD1 130137Z 15002KT 35/13 A2989 RMK A01 T03540129  RH  026%=      5-min Rain = 0
KMD1 130138Z 15003KT 35/13 A2989 RMK A01 T03510131  RH  027%=      5-min Rain = 0
KMD1 130139Z 16003KT 35/13 A2989 RMK A01 T03480133  RH  027%=      5-min Rain = 0
KMD1 130140Z 16004KT 35/13 A2989 RMK A01 T03460133  RH  028%=      5-min Rain = 0
KMD1 130141Z 16004KT 35/13 A2989 RMK A01 T03450131  RH  028%=      5-min Rain = 0
KMD1 130142Z 16004KT 34/13 A2989 RMK A01 T03440125  RH  027%=      5-min Rain = 0
KMD1 130143Z 16004KT 34/12 A2989 RMK A01 T03440122  RH  026%=      5-min Rain = 0
KMD1 130144Z 16004KT 34/12 A2989 RMK A01 T03440119  RH  026%=      5-min Rain = 0
KMD1 130145Z 16004KT 35/12 A2989 RMK A01 T03450118  RH  025%=      5-min Rain = 0
KMD1 130146Z 16004KT 35/12 A2989 RMK A01 T03460116  RH  025%=      5-min Rain = 0
KMD1 130147Z 15004KT 35/12 A2989 RMK A01 T03460118  RH  025%=      5-min Rain = 0
KMD1 130148Z 16004KT 35/12 A2989 RMK A01 T03450119  RH  025%=      5-min Rain = 0
KMD1 130149Z 15004KT 35/12 A2989 RMK A01 T03450120  RH  026%=      5-min Rain = 0
KMD1 130150Z 16004KT 34/12 A2989 RMK A01 T03430120  RH  026%=      5-min Rain = 0
KMD1 130151Z 16004KT 34/12 A2989 RMK A01 T03410117  RH  026%=      5-min Rain = 0
KMD1 130152Z 16003KT 34/12 A2989 RMK A01 T03410118  RH  026%=      5-min Rain = 0
KMD1 130153Z 17003KT 34/12 A2989 RMK A01 T03390117  RH  026%=      5-min Rain = 0
KMD1 130154Z 17003KT 34/12 A2989 RMK A01 T03390117  RH  026%=      5-min Rain = 0
KMD1 130155Z 18002KT 34/12 A2989 RMK A01 T03370118  RH  026%=      5-min Rain = 0
KMD1 130156Z 19001KT 34/12 A2989 RMK A01 T03370120  RH  027%=      5-min Rain = 0
KMD1 130157Z 20001KT 34/12 A2989 RMK A01 T03350120  RH  027%=      5-min Rain = 0
KMD1 130158Z 19001KT 33/12 A2989 RMK A01 T03340121  RH  027%=      5-min Rain = 0
KMD1 130159Z 20001KT 33/12 A2989 RMK A01 T03330121  RH  028%=      5-min Rain = 0
KMD1 130200Z 21002KT 33/12 A2989 RMK A01 T03330123  RH  028%=      5-min Rain = 0
KMD1 130201Z 21002KT 33/12 A2989 RMK A01 T03320123  RH  028%=      5-min Rain = 0
KMD1 130202Z 20002KT 33/12 A2989 RMK A01 T03320124  RH  028%=      5-min Rain = 0
KMD1 130203Z 19002KT 33/12 A2989 RMK A01 T03310124  RH  028%=      5-min Rain = 0
KMD1 130204Z 19002KT 33/12 A2989 RMK A01 T03300123  RH  028%=      5-min Rain = 0
KMD1 130205Z 19002KT 33/12 A2989 RMK A01 T03300122  RH  028%=      5-min Rain = 0
KMD1 130206Z 19002KT 33/12 A2989 RMK A01 T03290122  RH  028%=      5-min Rain = 0
KMD1 130207Z 19001KT 33/12 A2989 RMK A01 T03290122  RH  028%=      5-min Rain = 0
KMD1 130208Z 19001KT 33/13 A2989 RMK A01 T03280126  RH  029%=      5-min Rain = 0
KMD1 130209Z 19001KT 33/12 A2989 RMK A01 T03270123  RH  029%=      5-min Rain = 0
KMD1 130210Z 18001KT 33/12 A2989 RMK A01 T03270123  RH  029%=      5-min Rain = 0
KMD1 130211Z 19001KT 33/12 A2989 RMK A01 T03260123  RH  029%=      5-min Rain = 0
KMD1 130212Z 20001KT 33/12 A2989 RMK A01 T03250122  RH  029%=      5-min Rain = 0
KMD1 130213Z 20001KT 33/12 A2989 RMK A01 T03250122  RH  029%=      5-min Rain = 0
KMD1 130214Z 20001KT 33/12 A2989 RMK A01 T03250122  RH  029%=      5-min Rain = 0
KMD1 130215Z 20002KT 33/12 A2989 RMK A01 T03250121  RH  029%=      5-min Rain = 0
KMD1 130216Z 20001KT 33/12 A2989 RMK A01 T03250121  RH  029%=      5-min Rain = 0
KMD1 130217Z 21001KT 33/13 A2989 RMK A01 T03250125  RH  030%=      5-min Rain = 0
KMD1 130218Z 21000KT 33/12 A2989 RMK A01 T03250123  RH  029%=      5-min Rain = 0
KMD1 130219Z 21001KT 33/12 A2989 RMK A01 T03250123  RH  029%=      5-min Rain = 0
KMD1 130220Z 21000KT 32/13 A2989 RMK A01 T03240125  RH  030%=      5-min Rain = 0
KMD1 130221Z 21000KT 32/13 A2989 RMK A01 T03240125  RH  030%=      5-min Rain = 0
KMD1 130222Z 21000KT 32/13 A2989 RMK A01 T03230125  RH  030%=      5-min Rain = 0
KMD1 130223Z 20000KT 32/13 A2989 RMK A01 T03220126  RH  030%=      5-min Rain = 0
KMD1 130224Z 00000KT 32/13 A2989 RMK A01 T03210125  RH  030%=      5-min Rain = 0
KMD1 130225Z 00000KT 32/13 A2989 RMK A01 T03200127  RH  031%=      5-min Rain = 0
KMD1 130226Z 00000KT 32/13 A2989 RMK A01 T03200127  RH  031%=      5-min Rain = 0
KMD1 130227Z 00000KT 32/12 A2989 RMK A01 T03190124  RH  030%=      5-min Rain = 0
KMD1 130228Z 00000KT 32/13 A299 RMK A01 T03200125  RH  030%=      5-min Rain = 0
KMD1 130229Z 00000KT 32/12 A299 RMK A01 T03200124  RH  030%=      5-min Rain = 0
KMD1 130230Z 00000KT 32/12 A299 RMK A01 T03190122  RH  030%=      5-min Rain = 0
KMD1 130231Z 00000KT 32/12 A299 RMK A01 T03190123  RH  030%=      5-min Rain = 0
KMD1 130232Z 00000KT 32/13 A299 RMK A01 T03170130  RH  032%=      5-min Rain = 0
KMD1 130233Z 00000KT 32/13 A299 RMK A01 T03150130  RH  032%=      5-min Rain = 0
KMD1 130234Z 00000KT 31/13 A299 RMK A01 T03130126  RH  032%=      5-min Rain = 0
KMD1 130235Z 00000KT 31/13 A299 RMK A01 T03130127  RH  032%=      5-min Rain = 0
KMD1 130236Z 00000KT 31/13 A299 RMK A01 T03120126  RH  032%=      5-min Rain = 0
KMD1 130237Z 21000KT 31/13 A299 RMK A01 T03120131  RH  033%=      5-min Rain = 0
KMD1 130238Z 21000KT 31/13 A299 RMK A01 T03110130  RH  033%=      5-min Rain = 0
KMD1 130239Z 00000KT 31/13 A299 RMK A01 T03080131  RH  034%=      5-min Rain = 0
KMD1 130240Z 21000KT 31/13 A299 RMK A01 T03060133  RH  035%=      5-min Rain = 0
KMD1 130241Z 21001KT 30/13 A299 RMK A01 T03040134  RH  035%=      5-min Rain = 0
KMD1 130242Z 21000KT 30/13 A299 RMK A01 T03020131  RH  035%=      5-min Rain = 0
KMD1 130243Z 21000KT 30/13 A299 RMK A01 T03020129  RH  035%=      5-min Rain = 0
KMD1 130244Z 19000KT 30/13 A299 RMK A01 T03010127  RH  034%=      5-min Rain = 0
KMD1 130245Z 17000KT 30/13 A299 RMK A01 T03010127  RH  034%=      5-min Rain = 0
KMD1 130246Z 17000KT 30/13 A299 RMK A01 T03010128  RH  035%=      5-min Rain = 0
KMD1 130247Z 17000KT 30/13 A299 RMK A01 T03010133  RH  036%=      5-min Rain = 0
KMD1 130248Z 06001KT 30/14 A299 RMK A01 T03010137  RH  037%=      5-min Rain = 0
KMD1 130249Z 07002KT 30/15 A299 RMK A01 T02990145  RH  039%=      5-min Rain = 0
KMD1 130250Z 06002KT 30/14 A299 RMK A01 T02950143  RH  040%=      5-min Rain = 0
KMD1 130251Z 05004KT 29/14 A299 RMK A01 T02920143  RH  040%=      5-min Rain = 0
KMD1 130252Z 06002KT 29/14 A2991 RMK A01 T02910138  RH  039%=      5-min Rain = 0
KMD1 130253Z 06001KT 29/14 A2991 RMK A01 T02920138  RH  039%=      5-min Rain = 0
KMD1 130254Z 06001KT 29/14 A2991 RMK A01 T02930143  RH  040%=      5-min Rain = 0
KMD1 130255Z 07002KT 29/14 A2991 RMK A01 T02920139  RH  039%=      5-min Rain = 0
KMD1 130256Z 07003KT 29/14 A2991 RMK A01 T02920139  RH  039%=      5-min Rain = 0
KMD1 130257Z 07003KT 29/14 A2991 RMK A01 T02920140  RH  039%=      5-min Rain = 0
KMD1 130258Z 08004KT 29/14 A2991 RMK A01 T02920138  RH  039%=      5-min Rain = 0
KMD1 130259Z 10004KT 29/14 A2991 RMK A01 T02930139  RH  039%=      5-min Rain = 0
KMD1 130300Z 14003KT 29/14 A2991 RMK A01 T02930140  RH  039%=      5-min Rain = 0
KMD1 130301Z 12002KT 29/14 A2991 RMK A01 T02920137  RH  039%=      5-min Rain = 0
KMD1 130302Z 11002KT 29/14 A2991 RMK A01 T02930135  RH  038%=      5-min Rain = 0
KMD1 130303Z 12002KT 29/13 A2991 RMK A01 T02930134  RH  037%=      5-min Rain = 0
KMD1 130304Z 11002KT 30/13 A2991 RMK A01 T02950130  RH  036%=      5-min Rain = 0
KMD1 130305Z 12002KT 30/13 A2991 RMK A01 T02980129  RH  035%=      5-min Rain = 0
KMD1 130306Z 12002KT 30/13 A2991 RMK A01 T03000128  RH  035%=      5-min Rain = 0
KMD1 130307Z 11002KT 30/13 A2991 RMK A01 T03020126  RH  034%=      5-min Rain = 0
KMD1 130308Z 13003KT 30/13 A2991 RMK A01 T03030125  RH  033%=      5-min Rain = 0
KMD1 130309Z 13002KT 31/12 A2991 RMK A01 T03060124  RH  033%=      5-min Rain = 0
KMD1 130310Z 13002KT 31/12 A2992 RMK A01 T03080124  RH  032%=      5-min Rain = 0
KMD1 130311Z 13002KT 31/12 A2992 RMK A01 T03090123  RH  032%=      5-min Rain = 0
KMD1 130312Z 13002KT 31/12 A2992 RMK A01 T03100123  RH  032%=      5-min Rain = 0
KMD1 130313Z 14001KT 31/12 A2992 RMK A01 T03110124  RH  032%=      5-min Rain = 0
KMD1 130314Z 16001KT 31/12 A2992 RMK A01 T03110123  RH  032%=      5-min Rain = 0
KMD1 130315Z 14001KT 31/12 A2992 RMK A01 T03120124  RH  032%=      5-min Rain = 0
KMD1 130316Z 15000KT 31/12 A2992 RMK A01 T03120124  RH  032%=      5-min Rain = 0
KMD1 130317Z 15000KT 31/12 A2992 RMK A01 T03110123  RH  032%=      5-min Rain = 0
KMD1 130318Z 14000KT 31/13 A2992 RMK A01 T03110125  RH  032%=      5-min Rain = 0
KMD1 130319Z 10000KT 31/13 A2992 RMK A01 T03090129  RH  033%=      5-min Rain = 0
KMD1 130320Z 00000KT 31/13 A2992 RMK A01 T03060128  RH  034%=      5-min Rain = 0
KMD1 130321Z 00000KT 31/13 A2992 RMK A01 T03050126  RH  034%=      5-min Rain = 0
KMD1 130322Z 00000KT 30/13 A2992 RMK A01 T03040126  RH  034%=      5-min Rain = 0
KMD1 130323Z 00000KT 30/13 A2992 RMK A01 T03030129  RH  034%=      5-min Rain = 0
KMD1 130324Z 00000KT 30/13 A2992 RMK A01 T03020129  RH  035%=      5-min Rain = 0
KMD1 130325Z 04000KT 30/13 A2993 RMK A01 T03010133  RH  036%=      5-min Rain = 0
KMD1 130326Z 01001KT 30/14 A2993 RMK A01 T03000135  RH  037%=      5-min Rain = 0
KMD1 130327Z 00001KT 30/13 A2993 RMK A01 T02980133  RH  036%=      5-min Rain = 0
KMD1 130328Z 36001KT 30/14 A2993 RMK A01 T02970135  RH  037%=      5-min Rain = 0
KMD1 130329Z 00002KT 29/13 A2993 RMK A01 T02940134  RH  037%=      5-min Rain = 0
KMD1 130330Z 01001KT 29/13 A2993 RMK A01 T02930133  RH  037%=      5-min Rain = 0
KMD1 130331Z 00001KT 29/13 A2993 RMK A01 T02920130  RH  037%=      5-min Rain = 0
KMD1 130332Z 01002KT 29/13 A2993 RMK A01 T02910129  RH  037%=      5-min Rain = 0
KMD1 130333Z 00002KT 29/13 A2993 RMK A01 T02910130  RH  037%=      5-min Rain = 0
KMD1 130334Z 36002KT 29/13 A2993 RMK A01 T02910132  RH  038%=      5-min Rain = 0
KMD1 130335Z 01002KT 29/13 A2993 RMK A01 T02900130  RH  037%=      5-min Rain = 0
KMD1 130336Z 01002KT 29/13 A2993 RMK A01 T02910130  RH  037%=      5-min Rain = 0
KMD1 130337Z 01002KT 29/13 A2993 RMK A01 T02910129  RH  037%=      5-min Rain = 0
KMD1 130338Z 02002KT 29/13 A2993 RMK A01 T02920131  RH  037%=      5-min Rain = 0
KMD1 130339Z 02003KT 29/13 A2993 RMK A01 T02910133  RH  038%=      5-min Rain = 0
KMD1 130340Z 01003KT 29/13 A2993 RMK A01 T02880132  RH  038%=      5-min Rain = 0
KMD1 130341Z 01003KT 29/13 A2993 RMK A01 T02870132  RH  038%=      5-min Rain = 0
KMD1 130342Z 01003KT 29/13 A2993 RMK A01 T02860131  RH  039%=      5-min Rain = 0
KMD1 130343Z 02002KT 29/13 A2993 RMK A01 T02850132  RH  039%=      5-min Rain = 0
KMD1 130344Z 01002KT 29/13 A2993 RMK A01 T02850133  RH  039%=      5-min Rain = 0
KMD1 130345Z 01002KT 28/13 A2993 RMK A01 T02840133  RH  039%=      5-min Rain = 0
KMD1 130346Z 36002KT 28/13 A2993 RMK A01 T02840133  RH  039%=      5-min Rain = 0
KMD1 130347Z 36003KT 28/13 A2993 RMK A01 T02840132  RH  039%=      5-min Rain = 0
KMD1 130348Z 01003KT 28/13 A2993 RMK A01 T02840131  RH  039%=      5-min Rain = 0
KMD1 130349Z 36002KT 29/13 A2993 RMK A01 T02850129  RH  038%=      5-min Rain = 0
KMD1 130350Z 36002KT 29/13 A2993 RMK A01 T02860130  RH  038%=      5-min Rain = 0
KMD1 130351Z 36002KT 29/13 A2993 RMK A01 T02870132  RH  038%=      5-min Rain = 0
KMD1 130352Z 35002KT 29/13 A2993 RMK A01 T02860131  RH  038%=      5-min Rain = 0
KMD1 130353Z 34002KT 29/13 A2993 RMK A01 T02860131  RH  038%=      5-min Rain = 0
KMD1 130354Z 34002KT 29/13 A2993 RMK A01 T02860132  RH  039%=      5-min Rain = 0
KMD1 130355Z 32002KT 29/13 A2993 RMK A01 T02850134  RH  039%=      5-min Rain = 0
KMD1 130356Z 30002KT 28/13 A2993 RMK A01 T02830131  RH  039%=      5-min Rain = 0
KMD1 130357Z 30002KT 28/13 A2994 RMK A01 T02820132  RH  040%=      5-min Rain = 0
KMD1 130358Z 31002KT 28/13 A2994 RMK A01 T02810132  RH  040%=      5-min Rain = 0
KMD1 130359Z 29001KT 28/13 A2994 RMK A01 T02800134  RH  041%=      5-min Rain = 0
KMD1 130400Z 29002KT 28/13 A2994 RMK A01 T02770134  RH  041%=      5-min Rain = 0
KMD1 130401Z 29002KT 27/13 A2994 RMK A01 T02740131  RH  041%=      5-min Rain = 0
KMD1 130402Z 30001KT 27/13 A2994 RMK A01 T02720128  RH  041%=      5-min Rain = 0
KMD1 130403Z 32001KT 27/13 A2994 RMK A01 T02720128  RH  041%=      5-min Rain = 0
KMD1 130404Z 31001KT 27/13 A2994 RMK A01 T02710132  RH  042%=      5-min Rain = 0
KMD1 130405Z 30002KT 27/13 A2994 RMK A01 T02700129  RH  042%=      5-min Rain = 0
KMD1 130406Z 30002KT 27/13 A2994 RMK A01 T02710126  RH  041%=      5-min Rain = 0
KMD1 130407Z 34001KT 27/13 A2994 RMK A01 T02740127  RH  040%=      5-min Rain = 0
KMD1 130408Z 36000KT 28/13 A2994 RMK A01 T02760128  RH  040%=      5-min Rain = 0
KMD1 130409Z 34000KT 28/13 A2994 RMK A01 T02770131  RH  041%=      5-min Rain = 0
KMD1 130410Z 33001KT 28/13 A2994 RMK A01 T02750131  RH  041%=      5-min Rain = 0
KMD1 130411Z 33001KT 27/13 A2994 RMK A01 T02740132  RH  042%=      5-min Rain = 0
KMD1 130412Z 30001KT 27/13 A2994 RMK A01 T02720131  RH  042%=      5-min Rain = 0
KMD1 130413Z 33000KT 27/13 A2994 RMK A01 T02720131  RH  042%=      5-min Rain = 0
KMD1 130414Z 34001KT 27/13 A2994 RMK A01 T02710131  RH  042%=      5-min Rain = 0
KMD1 130415Z 33001KT 27/14 A2994 RMK A01 T02710135  RH  043%=      5-min Rain = 0
KMD1 130416Z 31001KT 27/13 A2994 RMK A01 T02700134  RH  043%=      5-min Rain = 0
KMD1 130417Z 30001KT 27/13 A2994 RMK A01 T02690133  RH  043%=      5-min Rain = 0
KMD1 130418Z 00000KT 27/13 A2994 RMK A01 T02680133  RH  043%=      5-min Rain = 0
KMD1 130419Z 00000KT 27/13 A2994 RMK A01 T02670132  RH  043%=      5-min Rain = 0
KMD1 130420Z 32000KT 27/13 A2994 RMK A01 T02670134  RH  044%=      5-min Rain = 0
KMD1 130421Z 30000KT 27/13 A2994 RMK A01 T02660134  RH  044%=      5-min Rain = 0
KMD1 130422Z 33000KT 27/14 A2994 RMK A01 T02660135  RH  044%=      5-min Rain = 0
KMD1 130423Z 33000KT 27/14 A2994 RMK A01 T02650137  RH  045%=      5-min Rain = 0
KMD1 130424Z 00000KT 27/14 A2994 RMK A01 T02650136  RH  045%=      5-min Rain = 0
KMD1 130425Z 00000KT 27/14 A2994 RMK A01 T02650140  RH  046%=      5-min Rain = 0
KMD1 130426Z 00000KT 27/14 A2994 RMK A01 T02650140  RH  046%=      5-min Rain = 0
KMD1 130427Z 00000KT 26/14 A2994 RMK A01 T02640141  RH  047%=      5-min Rain = 0
KMD1 130428Z 34000KT 26/14 A2994 RMK A01 T02640142  RH  047%=      5-min Rain = 0
KMD1 130429Z 34001KT 26/14 A2994 RMK A01 T02630144  RH  048%=      5-min Rain = 0
KMD1 130430Z 33000KT 26/14 A2994 RMK A01 T02600142  RH  048%=      5-min Rain = 0
KMD1 130431Z 35000KT 26/14 A2994 RMK A01 T02600141  RH  048%=      5-min Rain = 0
KMD1 130432Z 35001KT 26/14 A2994 RMK A01 T02590137  RH  047%=      5-min Rain = 0
KMD1 130433Z 36001KT 26/14 A2994 RMK A01 T02600139  RH  047%=      5-min Rain = 0
KMD1 130434Z 00001KT 26/14 A2994 RMK A01 T02610139  RH  047%=      5-min Rain = 0
KMD1 130435Z 02001KT 26/14 A2994 RMK A01 T02620140  RH  047%=      5-min Rain = 0
KMD1 130436Z 03002KT 26/15 A2994 RMK A01 T02610145  RH  049%=      5-min Rain = 0
KMD1 130437Z 03002KT 26/15 A2994 RMK A01 T02580145  RH  050%=      5-min Rain = 0
KMD1 130438Z 03002KT 26/15 A2994 RMK A01 T02550145  RH  050%=      5-min Rain = 0
KMD1 130439Z 03002KT 25/14 A2994 RMK A01 T02530144  RH  051%=      5-min Rain = 0
KMD1 130440Z 02001KT 25/15 A2994 RMK A01 T02520145  RH  051%=      5-min Rain = 0
KMD1 130441Z 03002KT 25/15 A2994 RMK A01 T02510145  RH  052%=      5-min Rain = 0
KMD1 130442Z 03002KT 25/15 A2994 RMK A01 T02500145  RH  052%=      5-min Rain = 0
KMD1 130443Z 03002KT 25/15 A2994 RMK A01 T02490145  RH  052%=      5-min Rain = 0
KMD1 130444Z 03002KT 25/15 A2994 RMK A01 T02490146  RH  053%=      5-min Rain = 0
KMD1 130445Z 02002KT 25/15 A2994 RMK A01 T02500147  RH  053%=      5-min Rain = 0
KMD1 130446Z 02002KT 25/15 A2994 RMK A01 T02490146  RH  053%=      5-min Rain = 0
KMD1 130447Z 01002KT 25/14 A2994 RMK A01 T02490144  RH  052%=      5-min Rain = 0
KMD1 130448Z 00002KT 25/14 A2994 RMK A01 T02490143  RH  052%=      5-min Rain = 0
KMD1 130449Z 00002KT 25/14 A2994 RMK A01 T02500142  RH  051%=      5-min Rain = 0
KMD1 130450Z 01002KT 25/14 A2994 RMK A01 T02510140  RH  050%=      5-min Rain = 0
KMD1 130451Z 00002KT 25/14 A2994 RMK A01 T02520142  RH  051%=      5-min Rain = 0
KMD1 130452Z 01002KT 25/14 A2994 RMK A01 T02520142  RH  051%=      5-min Rain = 0
KMD1 130453Z 02002KT 25/14 A2994 RMK A01 T02510139  RH  050%=      5-min Rain = 0
KMD1 130454Z 02002KT 25/14 A2994 RMK A01 T02520136  RH  048%=      5-min Rain = 0
KMD1 130455Z 01002KT 25/14 A2994 RMK A01 T02540137  RH  048%=      5-min Rain = 0
KMD1 130456Z 01002KT 25/14 A2994 RMK A01 T02540138  RH  049%=      5-min Rain = 0
KMD1 130457Z 01002KT 25/14 A2994 RMK A01 T02540139  RH  049%=      5-min Rain = 0
KMD1 130458Z 01002KT 25/14 A2994 RMK A01 T02540137  RH  048%=      5-min Rain = 0
KMD1 130459Z 35002KT 25/14 A2994 RMK A01 T02540137  RH  048%=      5-min Rain = 0

Page generated in 0.1235 seconds.